<?xml version="1.0" encoding="ISO-8859-1"?>
<gpx version="1.1" 
creator="Memory-Map 5.4.2.1089 http://www.memory-map.com"
 xmlns:xsi="http://www.w3.org/2001/XMLSchema-instance"
 xmlns="http://www.topografix.com/GPX/1/1"
 xsi:schemaLocation="http://www.topografix.com/GPX/1/1 http://www.topografix.com/GPX/1/1/gpx.xsd">
<trk>
<name>Lose Hill</name>
<type>Track</type>
<trkseg>
<trkpt lat="53.3458175023" lon="-1.7307316462"><ele>164</ele><time>2012-11-30T10:13:05Z</time></trkpt>
<trkpt lat="53.3458893458" lon="-1.7305258433"><ele>177</ele><time>2012-11-30T10:17:18Z</time></trkpt>
<trkpt lat="53.3459333420" lon="-1.7303008397"><ele>177</ele><time>2012-11-30T10:17:32Z</time></trkpt>
<trkpt lat="53.3459364891" lon="-1.7300693512"><ele>176</ele><time>2012-11-30T10:17:42Z</time></trkpt>
<trkpt lat="53.3459593455" lon="-1.7298388163"><ele>176</ele><time>2012-11-30T10:17:55Z</time></trkpt>
<trkpt lat="53.3459008217" lon="-1.7296284993"><ele>176</ele><time>2012-11-30T10:18:21Z</time></trkpt>
<trkpt lat="53.3458994865" lon="-1.7294019699"><ele>179</ele><time>2012-11-30T10:19:00Z</time></trkpt>
<trkpt lat="53.3459163348" lon="-1.7291751862"><ele>177</ele><time>2012-11-30T10:19:32Z</time></trkpt>
<trkpt lat="53.3458561579" lon="-1.7289698283"><ele>177</ele><time>2012-11-30T10:19:43Z</time></trkpt>
<trkpt lat="53.3457728386" lon="-1.7287665049"><ele>177</ele><time>2012-11-30T10:19:54Z</time></trkpt>
<trkpt lat="53.3456890106" lon="-1.7285661697"><ele>177</ele><time>2012-11-30T10:20:04Z</time></trkpt>
<trkpt lat="53.3456130028" lon="-1.7283571879"><ele>176</ele><time>2012-11-30T10:20:15Z</time></trkpt>
<trkpt lat="53.3457394918" lon="-1.7282564799"><ele>176</ele><time>2012-11-30T10:20:32Z</time></trkpt>
<trkpt lat="53.3458745003" lon="-1.7282611847"><ele>175</ele><time>2012-11-30T10:20:43Z</time></trkpt>
<trkpt lat="53.3460135142" lon="-1.7282211939"><ele>176</ele><time>2012-11-30T10:20:55Z</time></trkpt>
<trkpt lat="53.3461496671" lon="-1.7281466802"><ele>175</ele><time>2012-11-30T10:21:07Z</time></trkpt>
<trkpt lat="53.3462783178" lon="-1.7280556361"><ele>175</ele><time>2012-11-30T10:21:18Z</time></trkpt>
<trkpt lat="53.3464128176" lon="-1.7279734929"><ele>175</ele><time>2012-11-30T10:21:31Z</time></trkpt>
<trkpt lat="53.3465488434" lon="-1.7278669993"><ele>175</ele><time>2012-11-30T10:21:43Z</time></trkpt>
<trkpt lat="53.3466769854" lon="-1.7277611415"><ele>175</ele><time>2012-11-30T10:21:54Z</time></trkpt>
<trkpt lat="53.3468075116" lon="-1.7276616414"><ele>175</ele><time>2012-11-30T10:22:06Z</time></trkpt>
<trkpt lat="53.3469215075" lon="-1.7275414785"><ele>175</ele><time>2012-11-30T10:22:17Z</time></trkpt>
<trkpt lat="53.3470386823" lon="-1.7274163564"><ele>175</ele><time>2012-11-30T10:22:31Z</time></trkpt>
<trkpt lat="53.3471570015" lon="-1.7273078283"><ele>175</ele><time>2012-11-30T10:22:53Z</time></trkpt>
<trkpt lat="53.3472770055" lon="-1.7271853129"><ele>176</ele><time>2012-11-30T10:23:13Z</time></trkpt>
<trkpt lat="53.3474121730" lon="-1.7270879745"><ele>176</ele><time>2012-11-30T10:23:23Z</time></trkpt>
<trkpt lat="53.3475491524" lon="-1.7270310084"><ele>177</ele><time>2012-11-30T10:23:34Z</time></trkpt>
<trkpt lat="53.3476796786" lon="-1.7269676844"><ele>177</ele><time>2012-11-30T10:23:55Z</time></trkpt>
<trkpt lat="53.3476841609" lon="-1.7267288208"><ele>181</ele><time>2012-11-30T10:25:54Z</time></trkpt>
<trkpt lat="53.3476704915" lon="-1.7265031815"><ele>181</ele><time>2012-11-30T10:26:07Z</time></trkpt>
<trkpt lat="53.3476655006" lon="-1.7262651443"><ele>182</ele><time>2012-11-30T10:26:20Z</time></trkpt>
<trkpt lat="53.3476621628" lon="-1.7260163625"><ele>185</ele><time>2012-11-30T10:26:33Z</time></trkpt>
<trkpt lat="53.3476491610" lon="-1.7262524923"><ele>184</ele><time>2012-11-30T10:27:13Z</time></trkpt>
<trkpt lat="53.3476574898" lon="-1.7264844894"><ele>183</ele><time>2012-11-30T10:27:26Z</time></trkpt>
<trkpt lat="53.3476695061" lon="-1.7267221451"><ele>182</ele><time>2012-11-30T10:27:38Z</time></trkpt>
<trkpt lat="53.3476896604" lon="-1.7269545237"><ele>181</ele><time>2012-11-30T10:28:07Z</time></trkpt>
<trkpt lat="53.3476908366" lon="-1.7271806717"><ele>181</ele><time>2012-11-30T10:28:18Z</time></trkpt>
<trkpt lat="53.3476948420" lon="-1.7274123510"><ele>182</ele><time>2012-11-30T10:28:31Z</time></trkpt>
<trkpt lat="53.3477083206" lon="-1.7276386897"><ele>182</ele><time>2012-11-30T10:28:43Z</time></trkpt>
<trkpt lat="53.3477348328" lon="-1.7278763453"><ele>183</ele><time>2012-11-30T10:28:55Z</time></trkpt>
<trkpt lat="53.3477626801" lon="-1.7281080246"><ele>183</ele><time>2012-11-30T10:29:07Z</time></trkpt>
<trkpt lat="53.3477910042" lon="-1.7283435186"><ele>183</ele><time>2012-11-30T10:29:18Z</time></trkpt>
<trkpt lat="53.3478161812" lon="-1.7285733541"><ele>184</ele><time>2012-11-30T10:29:29Z</time></trkpt>
<trkpt lat="53.3478498459" lon="-1.7287965139"><ele>184</ele><time>2012-11-30T10:29:41Z</time></trkpt>
<trkpt lat="53.3478989919" lon="-1.7290278117"><ele>184</ele><time>2012-11-30T10:29:52Z</time></trkpt>
<trkpt lat="53.3479386648" lon="-1.7292468389"><ele>183</ele><time>2012-11-30T10:30:03Z</time></trkpt>
<trkpt lat="53.3479913394" lon="-1.7294684728"><ele>184</ele><time>2012-11-30T10:30:24Z</time></trkpt>
<trkpt lat="53.3480171522" lon="-1.7297048569"><ele>184</ele><time>2012-11-30T10:30:36Z</time></trkpt>
<trkpt lat="53.3479373296" lon="-1.7299073537"><ele>183</ele><time>2012-11-30T10:30:49Z</time></trkpt>
<trkpt lat="53.3478700002" lon="-1.7301155090"><ele>183</ele><time>2012-11-30T10:31:00Z</time></trkpt>
<trkpt lat="53.3478051821" lon="-1.7303234736"><ele>182</ele><time>2012-11-30T10:31:12Z</time></trkpt>
<trkpt lat="53.3478051821" lon="-1.7305506388"><ele>181</ele><time>2012-11-30T10:31:24Z</time></trkpt>
<trkpt lat="53.3478098234" lon="-1.7307906469"><ele>181</ele><time>2012-11-30T10:31:36Z</time></trkpt>
<trkpt lat="53.3478236516" lon="-1.7310180028"><ele>181</ele><time>2012-11-30T10:31:48Z</time></trkpt>
<trkpt lat="53.3478361766" lon="-1.7312615077"><ele>180</ele><time>2012-11-30T10:32:00Z</time></trkpt>
<trkpt lat="53.3478469849" lon="-1.7314961751"><ele>178</ele><time>2012-11-30T10:32:20Z</time></trkpt>
<trkpt lat="53.3478611628" lon="-1.7317298253"><ele>178</ele><time>2012-11-30T10:32:38Z</time></trkpt>
<trkpt lat="53.3478858312" lon="-1.7319623311"><ele>177</ele><time>2012-11-30T10:32:50Z</time></trkpt>
<trkpt lat="53.3479103406" lon="-1.7321844737"><ele>176</ele><time>2012-11-30T10:33:01Z</time></trkpt>
<trkpt lat="53.3479303360" lon="-1.7324143092"><ele>174</ele><time>2012-11-30T10:33:13Z</time></trkpt>
<trkpt lat="53.3479501724" lon="-1.7326516469"><ele>174</ele><time>2012-11-30T10:33:25Z</time></trkpt>
<trkpt lat="53.3479721705" lon="-1.7328943253"><ele>173</ele><time>2012-11-30T10:33:36Z</time></trkpt>
<trkpt lat="53.3479925156" lon="-1.7331363042"><ele>172</ele><time>2012-11-30T10:33:48Z</time></trkpt>
<trkpt lat="53.3480288188" lon="-1.7333744685"><ele>172</ele><time>2012-11-30T10:34:00Z</time></trkpt>
<trkpt lat="53.3480526606" lon="-1.7335963567"><ele>173</ele><time>2012-11-30T10:34:11Z</time></trkpt>
<trkpt lat="53.3481320063" lon="-1.7337811788"><ele>172</ele><time>2012-11-30T10:34:25Z</time></trkpt>
<trkpt lat="53.3482713381" lon="-1.7337831497"><ele>171</ele><time>2012-11-30T10:34:48Z</time></trkpt>
<trkpt lat="53.3483701706" lon="-1.7336078644"><ele>171</ele><time>2012-11-30T10:35:01Z</time></trkpt>
<trkpt lat="53.3484710058" lon="-1.7334473292"><ele>171</ele><time>2012-11-30T10:35:14Z</time></trkpt>
<trkpt lat="53.3485586802" lon="-1.7332733154"><ele>172</ele><time>2012-11-30T10:35:27Z</time></trkpt>
<trkpt lat="53.3486646652" lon="-1.7331080119"><ele>172</ele><time>2012-11-30T10:35:40Z</time></trkpt>
<trkpt lat="53.3487691561" lon="-1.7329544703"><ele>172</ele><time>2012-11-30T10:35:51Z</time></trkpt>
<trkpt lat="53.3488765081" lon="-1.7328028361"><ele>173</ele><time>2012-11-30T10:36:03Z</time></trkpt>
<trkpt lat="53.3489981651" lon="-1.7326846441"><ele>173</ele><time>2012-11-30T10:36:15Z</time></trkpt>
<trkpt lat="53.3491216660" lon="-1.7325658162"><ele>174</ele><time>2012-11-30T10:36:27Z</time></trkpt>
<trkpt lat="53.3492399851" lon="-1.7324346542"><ele>177</ele><time>2012-11-30T10:36:42Z</time></trkpt>
<trkpt lat="53.3493520101" lon="-1.7323006948"><ele>178</ele><time>2012-11-30T10:36:57Z</time></trkpt>
<trkpt lat="53.3494621595" lon="-1.7321664810"><ele>179</ele><time>2012-11-30T10:37:09Z</time></trkpt>
<trkpt lat="53.3495771726" lon="-1.7320449829"><ele>181</ele><time>2012-11-30T10:37:21Z</time></trkpt>
<trkpt lat="53.3496986707" lon="-1.7319288254"><ele>181</ele><time>2012-11-30T10:37:33Z</time></trkpt>
<trkpt lat="53.3498015086" lon="-1.7317616781"><ele>183</ele><time>2012-11-30T10:37:45Z</time></trkpt>
<trkpt lat="53.3499166807" lon="-1.7316203435"><ele>184</ele><time>2012-11-30T10:37:57Z</time></trkpt>
<trkpt lat="53.3500413259" lon="-1.7314906438"><ele>185</ele><time>2012-11-30T10:38:10Z</time></trkpt>
<trkpt lat="53.3501686732" lon="-1.7313798269"><ele>185</ele><time>2012-11-30T10:38:22Z</time></trkpt>
<trkpt lat="53.3502978325" lon="-1.7313063304"><ele>186</ele><time>2012-11-30T10:38:32Z</time></trkpt>
<trkpt lat="53.3504190127" lon="-1.7314378103"><ele>190</ele><time>2012-11-30T10:38:45Z</time></trkpt>
<trkpt lat="53.3504603386" lon="-1.7316548030"><ele>193</ele><time>2012-11-30T10:38:57Z</time></trkpt>
<trkpt lat="53.3505185127" lon="-1.7318579992"><ele>194</ele><time>2012-11-30T10:39:07Z</time></trkpt>
<trkpt lat="53.3505929947" lon="-1.7320611954"><ele>196</ele><time>2012-11-30T10:39:17Z</time></trkpt>
<trkpt lat="53.3506809870" lon="-1.7322654724"><ele>199</ele><time>2012-11-30T10:39:28Z</time></trkpt>
<trkpt lat="53.3507690112" lon="-1.7324626923"><ele>199</ele><time>2012-11-30T10:39:38Z</time></trkpt>
<trkpt lat="53.3508713404" lon="-1.7326489766"><ele>200</ele><time>2012-11-30T10:39:48Z</time></trkpt>
<trkpt lat="53.3508964856" lon="-1.7328888575"><ele>199</ele><time>2012-11-30T10:40:00Z</time></trkpt>
<trkpt lat="53.3509273211" lon="-1.7331103643"><ele>199</ele><time>2012-11-30T10:40:12Z</time></trkpt>
<trkpt lat="53.3509308179" lon="-1.7333429972"><ele>199</ele><time>2012-11-30T10:40:26Z</time></trkpt>
<trkpt lat="53.3509119987" lon="-1.7335986455"><ele>198</ele><time>2012-11-30T10:40:36Z</time></trkpt>
<trkpt lat="53.3509129842" lon="-1.7338256836"><ele>197</ele><time>2012-11-30T10:40:49Z</time></trkpt>
<trkpt lat="53.3509471575" lon="-1.7340453466"><ele>196</ele><time>2012-11-30T10:41:09Z</time></trkpt>
<trkpt lat="53.3510078430" lon="-1.7342550278"><ele>196</ele><time>2012-11-30T10:41:19Z</time></trkpt>
<trkpt lat="53.3510696729" lon="-1.7344764709"><ele>196</ele><time>2012-11-30T10:41:29Z</time></trkpt>
<trkpt lat="53.3511340141" lon="-1.7346944809"><ele>195</ele><time>2012-11-30T10:41:41Z</time></trkpt>
<trkpt lat="53.3511991819" lon="-1.7348976771"><ele>195</ele><time>2012-11-30T10:41:51Z</time></trkpt>
<trkpt lat="53.3512536685" lon="-1.7351160049"><ele>194</ele><time>2012-11-30T10:42:01Z</time></trkpt>
<trkpt lat="53.3513268471" lon="-1.7353281657"><ele>194</ele><time>2012-11-30T10:42:13Z</time></trkpt>
<trkpt lat="53.3513848305" lon="-1.7355475108"><ele>194</ele><time>2012-11-30T10:42:23Z</time></trkpt>
<trkpt lat="53.3514676730" lon="-1.7357320150"><ele>193</ele><time>2012-11-30T10:42:33Z</time></trkpt>
<trkpt lat="53.3514800072" lon="-1.7359613419"><ele>192</ele><time>2012-11-30T10:42:45Z</time></trkpt>
<trkpt lat="53.3514861743" lon="-1.7362064997"><ele>192</ele><time>2012-11-30T10:42:56Z</time></trkpt>
<trkpt lat="53.3514946620" lon="-1.7364440282"><ele>191</ele><time>2012-11-30T10:43:06Z</time></trkpt>
<trkpt lat="53.3515170097" lon="-1.7366916656"><ele>191</ele><time>2012-11-30T10:43:17Z</time></trkpt>
<trkpt lat="53.3515448252" lon="-1.7369141897"><ele>190</ele><time>2012-11-30T10:43:27Z</time></trkpt>
<trkpt lat="53.3515931765" lon="-1.7371691386"><ele>189</ele><time>2012-11-30T10:43:37Z</time></trkpt>
<trkpt lat="53.3516249975" lon="-1.7373933156"><ele>188</ele><time>2012-11-30T10:43:50Z</time></trkpt>
<trkpt lat="53.3516788483" lon="-1.7376066844"><ele>187</ele><time>2012-11-30T10:44:01Z</time></trkpt>
<trkpt lat="53.3517826716" lon="-1.7377651850"><ele>187</ele><time>2012-11-30T10:44:13Z</time></trkpt>
<trkpt lat="53.3518876712" lon="-1.7379593531"><ele>187</ele><time>2012-11-30T10:44:23Z</time></trkpt>
<trkpt lat="53.3519676526" lon="-1.7381496429"><ele>186</ele><time>2012-11-30T10:44:34Z</time></trkpt>
<trkpt lat="53.3520366669" lon="-1.7383658091"><ele>186</ele><time>2012-11-30T10:44:45Z</time></trkpt>
<trkpt lat="53.3521078428" lon="-1.7385586421"><ele>185</ele><time>2012-11-30T10:44:57Z</time></trkpt>
<trkpt lat="53.3521971703" lon="-1.7387400309"><ele>185</ele><time>2012-11-30T10:45:07Z</time></trkpt>
<trkpt lat="53.3522740046" lon="-1.7389294942"><ele>185</ele><time>2012-11-30T10:45:17Z</time></trkpt>
<trkpt lat="53.3522826513" lon="-1.7391651789"><ele>185</ele><time>2012-11-30T10:45:28Z</time></trkpt>
<trkpt lat="53.3522399902" lon="-1.7394156774"><ele>184</ele><time>2012-11-30T10:45:38Z</time></trkpt>
<trkpt lat="53.3522001584" lon="-1.7396418254"><ele>184</ele><time>2012-11-30T10:45:49Z</time></trkpt>
<trkpt lat="53.3521751722" lon="-1.7398679733"><ele>184</ele><time>2012-11-30T10:46:02Z</time></trkpt>
<trkpt lat="53.3521368345" lon="-1.7401038488"><ele>184</ele><time>2012-11-30T10:46:13Z</time></trkpt>
<trkpt lat="53.3520823479" lon="-1.7403361638"><ele>183</ele><time>2012-11-30T10:46:23Z</time></trkpt>
<trkpt lat="53.3521176656" lon="-1.7405636470"><ele>182</ele><time>2012-11-30T10:46:35Z</time></trkpt>
<trkpt lat="53.3521279971" lon="-1.7408008575"><ele>179</ele><time>2012-11-30T10:46:47Z</time></trkpt>
<trkpt lat="53.3521678289" lon="-1.7410201391"><ele>178</ele><time>2012-11-30T10:47:01Z</time></trkpt>
<trkpt lat="53.3521990140" lon="-1.7412525177"><ele>178</ele><time>2012-11-30T10:47:11Z</time></trkpt>
<trkpt lat="53.3521811803" lon="-1.7415041606"><ele>177</ele><time>2012-11-30T10:47:21Z</time></trkpt>
<trkpt lat="53.3522368431" lon="-1.7417291641"><ele>177</ele><time>2012-11-30T10:47:31Z</time></trkpt>
<trkpt lat="53.3522541682" lon="-1.7419628143"><ele>176</ele><time>2012-11-30T10:47:42Z</time></trkpt>
<trkpt lat="53.3522355080" lon="-1.7421921412"><ele>176</ele><time>2012-11-30T10:47:52Z</time></trkpt>
<trkpt lat="53.3522604942" lon="-1.7424243291"><ele>175</ele><time>2012-11-30T10:48:03Z</time></trkpt>
<trkpt lat="53.3523086548" lon="-1.7426619848"><ele>175</ele><time>2012-11-30T10:48:15Z</time></trkpt>
<trkpt lat="53.3523185094" lon="-1.7428969701"><ele>174</ele><time>2012-11-30T10:48:28Z</time></trkpt>
<trkpt lat="53.3522089958" lon="-1.7430708567"><ele>174</ele><time>2012-11-30T10:48:40Z</time></trkpt>
<trkpt lat="53.3520660082" lon="-1.7431950251"><ele>173</ele><time>2012-11-30T10:48:50Z</time></trkpt>
<trkpt lat="53.3519326528" lon="-1.7432854970"><ele>173</ele><time>2012-11-30T10:49:00Z</time></trkpt>
<trkpt lat="53.3517951647" lon="-1.7433498383"><ele>173</ele><time>2012-11-30T10:49:13Z</time></trkpt>
<trkpt lat="53.3516521772" lon="-1.7433680216"><ele>173</ele><time>2012-11-30T10:49:24Z</time></trkpt>
<trkpt lat="53.3515135129" lon="-1.7433870316"><ele>173</ele><time>2012-11-30T10:49:35Z</time></trkpt>
<trkpt lat="53.3514288266" lon="-1.7435706457"><ele>173</ele><time>2012-11-30T10:49:54Z</time></trkpt>
<trkpt lat="53.3514281591" lon="-1.7438073476"><ele>173</ele><time>2012-11-30T10:50:11Z</time></trkpt>
<trkpt lat="53.3513854980" lon="-1.7440233231"><ele>173</ele><time>2012-11-30T10:50:26Z</time></trkpt>
<trkpt lat="53.3513751666" lon="-1.7442606608"><ele>174</ele><time>2012-11-30T10:50:43Z</time></trkpt>
<trkpt lat="53.3513573329" lon="-1.7444899877"><ele>176</ele><time>2012-11-30T10:50:58Z</time></trkpt>
<trkpt lat="53.3514049848" lon="-1.7447120031"><ele>176</ele><time>2012-11-30T10:51:13Z</time></trkpt>
<trkpt lat="53.3515018463" lon="-1.7448794683"><ele>177</ele><time>2012-11-30T10:51:36Z</time></trkpt>
<trkpt lat="53.3515668233" lon="-1.7450833639"><ele>177</ele><time>2012-11-30T10:51:48Z</time></trkpt>
<trkpt lat="53.3516434987" lon="-1.7452795029"><ele>177</ele><time>2012-11-30T10:52:01Z</time></trkpt>
<trkpt lat="53.3517400106" lon="-1.7454650243"><ele>177</ele><time>2012-11-30T10:52:13Z</time></trkpt>
<trkpt lat="53.3518084844" lon="-1.7456631978"><ele>178</ele><time>2012-11-30T10:52:29Z</time></trkpt>
<trkpt lat="53.3517936707" lon="-1.7458976746"><ele>179</ele><time>2012-11-30T10:52:42Z</time></trkpt>
<trkpt lat="53.3518586795" lon="-1.7460976919"><ele>180</ele><time>2012-11-30T10:53:02Z</time></trkpt>
<trkpt lat="53.3519191742" lon="-1.7463031769"><ele>180</ele><time>2012-11-30T10:53:20Z</time></trkpt>
<trkpt lat="53.3519736608" lon="-1.7465191523"><ele>181</ele><time>2012-11-30T10:53:33Z</time></trkpt>
<trkpt lat="53.3520513217" lon="-1.7467081706"><ele>182</ele><time>2012-11-30T10:53:44Z</time></trkpt>
<trkpt lat="53.3521453222" lon="-1.7468728383"><ele>183</ele><time>2012-11-30T10:53:55Z</time></trkpt>
<trkpt lat="53.3522390048" lon="-1.7470373154"><ele>183</ele><time>2012-11-30T10:54:06Z</time></trkpt>
<trkpt lat="53.3523081779" lon="-1.7472306569"><ele>183</ele><time>2012-11-30T10:54:17Z</time></trkpt>
<trkpt lat="53.3523874919" lon="-1.7474398295"><ele>184</ele><time>2012-11-30T10:54:29Z</time></trkpt>
<trkpt lat="53.3524730047" lon="-1.7476328532"><ele>184</ele><time>2012-11-30T10:54:43Z</time></trkpt>
<trkpt lat="53.3525653203" lon="-1.7477973302"><ele>184</ele><time>2012-11-30T10:54:53Z</time></trkpt>
<trkpt lat="53.3526936531" lon="-1.7478756587"><ele>184</ele><time>2012-11-30T10:55:15Z</time></trkpt>
<trkpt lat="53.3527491570" lon="-1.7480813344"><ele>184</ele><time>2012-11-30T10:55:28Z</time></trkpt>
<trkpt lat="53.3527993202" lon="-1.7483015060"><ele>184</ele><time>2012-11-30T10:55:45Z</time></trkpt>
<trkpt lat="53.3528990110" lon="-1.7484656652"><ele>185</ele><time>2012-11-30T10:56:04Z</time></trkpt>
<trkpt lat="53.3529738426" lon="-1.7486533483"><ele>185</ele><time>2012-11-30T10:56:25Z</time></trkpt>
<trkpt lat="53.3530758222" lon="-1.7488231659"><ele>186</ele><time>2012-11-30T10:56:46Z</time></trkpt>
<trkpt lat="53.3531551679" lon="-1.7490215302"><ele>187</ele><time>2012-11-30T10:56:57Z</time></trkpt>
<trkpt lat="53.3532215118" lon="-1.7492235184"><ele>187</ele><time>2012-11-30T10:57:08Z</time></trkpt>
<trkpt lat="53.3532620112" lon="-1.7494400024"><ele>187</ele><time>2012-11-30T10:57:23Z</time></trkpt>
<trkpt lat="53.3533040047" lon="-1.7496618271"><ele>188</ele><time>2012-11-30T10:57:43Z</time></trkpt>
<trkpt lat="53.3533608437" lon="-1.7498694738"><ele>188</ele><time>2012-11-30T10:57:56Z</time></trkpt>
<trkpt lat="53.3534258207" lon="-1.7500713348"><ele>188</ele><time>2012-11-30T10:58:08Z</time></trkpt>
<trkpt lat="53.3534916560" lon="-1.7502761841"><ele>189</ele><time>2012-11-30T10:58:21Z</time></trkpt>
<trkpt lat="53.3535444895" lon="-1.7505009969"><ele>190</ele><time>2012-11-30T10:58:34Z</time></trkpt>
<trkpt lat="53.3536216736" lon="-1.7506868362"><ele>190</ele><time>2012-11-30T10:58:45Z</time></trkpt>
<trkpt lat="53.3536893209" lon="-1.7508858363"><ele>191</ele><time>2012-11-30T10:58:55Z</time></trkpt>
<trkpt lat="53.3537520091" lon="-1.7511013031"><ele>192</ele><time>2012-11-30T10:59:08Z</time></trkpt>
<trkpt lat="53.3538418452" lon="-1.7512798309"><ele>193</ele><time>2012-11-30T10:59:31Z</time></trkpt>
<trkpt lat="53.3538941701" lon="-1.7514930089"><ele>192</ele><time>2012-11-30T11:00:17Z</time></trkpt>
<trkpt lat="53.3539676666" lon="-1.7516903559"><ele>192</ele><time>2012-11-30T11:00:29Z</time></trkpt>
<trkpt lat="53.3540128390" lon="-1.7519154867"><ele>193</ele><time>2012-11-30T11:00:41Z</time></trkpt>
<trkpt lat="53.3540049871" lon="-1.7521518071"><ele>194</ele><time>2012-11-30T11:00:53Z</time></trkpt>
<trkpt lat="53.3540078481" lon="-1.7523948034"><ele>194</ele><time>2012-11-30T11:01:06Z</time></trkpt>
<trkpt lat="53.3539994876" lon="-1.7526285172"><ele>194</ele><time>2012-11-30T11:01:34Z</time></trkpt>
<trkpt lat="53.3540241559" lon="-1.7528598150"><ele>195</ele><time>2012-11-30T11:01:55Z</time></trkpt>
<trkpt lat="53.3540466626" lon="-1.7530988057"><ele>195</ele><time>2012-11-30T11:02:06Z</time></trkpt>
<trkpt lat="53.3540939967" lon="-1.7533256531"><ele>195</ele><time>2012-11-30T11:02:18Z</time></trkpt>
<trkpt lat="53.3541788419" lon="-1.7535079956"><ele>196</ele><time>2012-11-30T11:02:32Z</time></trkpt>
<trkpt lat="53.3542183240" lon="-1.7537349701"><ele>199</ele><time>2012-11-30T11:02:50Z</time></trkpt>
<trkpt lat="53.3542513212" lon="-1.7539548238"><ele>199</ele><time>2012-11-30T11:03:02Z</time></trkpt>
<trkpt lat="53.3542908351" lon="-1.7541774750"><ele>200</ele><time>2012-11-30T11:03:15Z</time></trkpt>
<trkpt lat="53.3543356578" lon="-1.7543938319"><ele>202</ele><time>2012-11-30T11:03:28Z</time></trkpt>
<trkpt lat="53.3543800036" lon="-1.7546151479"><ele>204</ele><time>2012-11-30T11:03:40Z</time></trkpt>
<trkpt lat="53.3544340134" lon="-1.7548226674"><ele>206</ele><time>2012-11-30T11:03:52Z</time></trkpt>
<trkpt lat="53.3545161565" lon="-1.7550078074"><ele>206</ele><time>2012-11-30T11:04:05Z</time></trkpt>
<trkpt lat="53.3545891762" lon="-1.7551993052"><ele>207</ele><time>2012-11-30T11:04:17Z</time></trkpt>
<trkpt lat="53.3546741803" lon="-1.7553791682"><ele>207</ele><time>2012-11-30T11:04:29Z</time></trkpt>
<trkpt lat="53.3547670046" lon="-1.7555496852"><ele>208</ele><time>2012-11-30T11:04:42Z</time></trkpt>
<trkpt lat="53.3548760096" lon="-1.7556865056"><ele>209</ele><time>2012-11-30T11:04:55Z</time></trkpt>
<trkpt lat="53.3549724897" lon="-1.7558509827"><ele>211</ele><time>2012-11-30T11:05:19Z</time></trkpt>
<trkpt lat="53.3550380071" lon="-1.7560603460"><ele>212</ele><time>2012-11-30T11:05:32Z</time></trkpt>
<trkpt lat="53.3551106771" lon="-1.7562673569"><ele>213</ele><time>2012-11-30T11:05:45Z</time></trkpt>
<trkpt lat="53.3551803271" lon="-1.7564603170"><ele>213</ele><time>2012-11-30T11:05:58Z</time></trkpt>
<trkpt lat="53.3552531560" lon="-1.7566645304"><ele>214</ele><time>2012-11-30T11:06:14Z</time></trkpt>
<trkpt lat="53.3553325017" lon="-1.7568618139"><ele>216</ele><time>2012-11-30T11:06:29Z</time></trkpt>
<trkpt lat="53.3554263433" lon="-1.7570374807"><ele>219</ele><time>2012-11-30T11:06:44Z</time></trkpt>
<trkpt lat="53.3554983457" lon="-1.7572378159"><ele>221</ele><time>2012-11-30T11:06:59Z</time></trkpt>
<trkpt lat="53.3555848440" lon="-1.7574191411"><ele>223</ele><time>2012-11-30T11:07:15Z</time></trkpt>
<trkpt lat="53.3556673368" lon="-1.7575998306"><ele>225</ele><time>2012-11-30T11:07:28Z</time></trkpt>
<trkpt lat="53.3557464918" lon="-1.7578001658"><ele>227</ele><time>2012-11-30T11:07:42Z</time></trkpt>
<trkpt lat="53.3558226585" lon="-1.7580015182"><ele>228</ele><time>2012-11-30T11:07:56Z</time></trkpt>
<trkpt lat="53.3559186618" lon="-1.7581653595"><ele>231</ele><time>2012-11-30T11:08:37Z</time></trkpt>
<trkpt lat="53.3559700012" lon="-1.7583869934"><ele>234</ele><time>2012-11-30T11:08:53Z</time></trkpt>
<trkpt lat="53.3560176531" lon="-1.7586036682"><ele>237</ele><time>2012-11-30T11:09:07Z</time></trkpt>
<trkpt lat="53.3560949961" lon="-1.7588031769"><ele>238</ele><time>2012-11-30T11:09:21Z</time></trkpt>
<trkpt lat="53.3561556816" lon="-1.7590161641"><ele>240</ele><time>2012-11-30T11:09:34Z</time></trkpt>
<trkpt lat="53.3562311808" lon="-1.7592133204"><ele>242</ele><time>2012-11-30T11:09:47Z</time></trkpt>
<trkpt lat="53.3563123385" lon="-1.7594126383"><ele>243</ele><time>2012-11-30T11:10:00Z</time></trkpt>
<trkpt lat="53.3563489914" lon="-1.7596358617"><ele>245</ele><time>2012-11-30T11:10:21Z</time></trkpt>
<trkpt lat="53.3564134916" lon="-1.7598468145"><ele>249</ele><time>2012-11-30T11:12:13Z</time></trkpt>
<trkpt lat="53.3564995130" lon="-1.7600259781"><ele>250</ele><time>2012-11-30T11:12:30Z</time></trkpt>
<trkpt lat="53.3566100121" lon="-1.7601618449"><ele>251</ele><time>2012-11-30T11:12:48Z</time></trkpt>
<trkpt lat="53.3567276637" lon="-1.7602723440"><ele>254</ele><time>2012-11-30T11:13:04Z</time></trkpt>
<trkpt lat="53.3568513234" lon="-1.7603848139"><ele>256</ele><time>2012-11-30T11:13:19Z</time></trkpt>
<trkpt lat="53.3569641749" lon="-1.7605208079"><ele>259</ele><time>2012-11-30T11:13:35Z</time></trkpt>
<trkpt lat="53.3570826530" lon="-1.7606323242"><ele>260</ele><time>2012-11-30T11:13:49Z</time></trkpt>
<trkpt lat="53.3572123210" lon="-1.7607196808"><ele>261</ele><time>2012-11-30T11:14:05Z</time></trkpt>
<trkpt lat="53.3573311806" lon="-1.7608303070"><ele>264</ele><time>2012-11-30T11:14:27Z</time></trkpt>
<trkpt lat="53.3574281693" lon="-1.7609895070"><ele>266</ele><time>2012-11-30T11:14:42Z</time></trkpt>
<trkpt lat="53.3574975014" lon="-1.7611933390"><ele>268</ele><time>2012-11-30T11:14:59Z</time></trkpt>
<trkpt lat="53.3575715065" lon="-1.7613911947"><ele>271</ele><time>2012-11-30T11:15:13Z</time></trkpt>
<trkpt lat="53.3576380094" lon="-1.7615951538"><ele>274</ele><time>2012-11-30T11:15:30Z</time></trkpt>
<trkpt lat="53.3577261607" lon="-1.7617795308"><ele>276</ele><time>2012-11-30T11:15:47Z</time></trkpt>
<trkpt lat="53.3578511556" lon="-1.7618900299"><ele>277</ele><time>2012-11-30T11:16:06Z</time></trkpt>
<trkpt lat="53.3579713186" lon="-1.7620178223"><ele>280</ele><time>2012-11-30T11:16:23Z</time></trkpt>
<trkpt lat="53.3581100146" lon="-1.7620698293"><ele>283</ele><time>2012-11-30T11:16:41Z</time></trkpt>
<trkpt lat="53.3582229932" lon="-1.7622006734"><ele>285</ele><time>2012-11-30T11:16:57Z</time></trkpt>
<trkpt lat="53.3583463351" lon="-1.7623073578"><ele>288</ele><time>2012-11-30T11:17:12Z</time></trkpt>
<trkpt lat="53.3584651629" lon="-1.7624350230"><ele>290</ele><time>2012-11-30T11:17:28Z</time></trkpt>
<trkpt lat="53.3585958481" lon="-1.7625313441"><ele>292</ele><time>2012-11-30T11:17:46Z</time></trkpt>
<trkpt lat="53.3587199847" lon="-1.7626213074"><ele>294</ele><time>2012-11-30T11:18:02Z</time></trkpt>
<trkpt lat="53.3588170052" lon="-1.7627956390"><ele>296</ele><time>2012-11-30T11:18:18Z</time></trkpt>
<trkpt lat="53.3589359919" lon="-1.7629058202"><ele>298</ele><time>2012-11-30T11:18:38Z</time></trkpt>
<trkpt lat="53.3589656512" lon="-1.7631316503"><ele>304</ele><time>2012-11-30T11:19:30Z</time></trkpt>
<trkpt lat="53.3589573224" lon="-1.7633694967"><ele>306</ele><time>2012-11-30T11:19:45Z</time></trkpt>
<trkpt lat="53.3589850108" lon="-1.7635966619"><ele>307</ele><time>2012-11-30T11:19:59Z</time></trkpt>
<trkpt lat="53.3590108236" lon="-1.7638266881"><ele>309</ele><time>2012-11-30T11:20:17Z</time></trkpt>
<trkpt lat="53.3589918454" lon="-1.7640568415"><ele>311</ele><time>2012-11-30T11:20:32Z</time></trkpt>
<trkpt lat="53.3590270042" lon="-1.7642775218"><ele>313</ele><time>2012-11-30T11:20:52Z</time></trkpt>
<trkpt lat="53.3590863228" lon="-1.7644873301"><ele>316</ele><time>2012-11-30T11:21:24Z</time></trkpt>
<trkpt lat="53.3591494878" lon="-1.7647071838"><ele>319</ele><time>2012-11-30T11:21:41Z</time></trkpt>
<trkpt lat="53.3592100143" lon="-1.7649213155"><ele>323</ele><time>2012-11-30T11:22:00Z</time></trkpt>
<trkpt lat="53.3592819850" lon="-1.7651226679"><ele>325</ele><time>2012-11-30T11:22:17Z</time></trkpt>
<trkpt lat="53.3593865077" lon="-1.7652865092"><ele>327</ele><time>2012-11-30T11:22:37Z</time></trkpt>
<trkpt lat="53.3594993273" lon="-1.7654335022"><ele>329</ele><time>2012-11-30T11:22:52Z</time></trkpt>
<trkpt lat="53.3596113205" lon="-1.7655623118"><ele>330</ele><time>2012-11-30T11:23:09Z</time></trkpt>
<trkpt lat="53.3597420057" lon="-1.7656569799"><ele>334</ele><time>2012-11-30T11:23:30Z</time></trkpt>
<trkpt lat="53.3598636627" lon="-1.7657663345"><ele>336</ele><time>2012-11-30T11:23:49Z</time></trkpt>
<trkpt lat="53.3599838257" lon="-1.7658730189"><ele>337</ele><time>2012-11-30T11:24:08Z</time></trkpt>
<trkpt lat="53.3601126671" lon="-1.7659528097"><ele>340</ele><time>2012-11-30T11:24:24Z</time></trkpt>
<trkpt lat="53.3602496783" lon="-1.7659996668"><ele>343</ele><time>2012-11-30T11:24:40Z</time></trkpt>
<trkpt lat="53.3603590012" lon="-1.7661371867"><ele>348</ele><time>2012-11-30T11:25:03Z</time></trkpt>
<trkpt lat="53.3604796727" lon="-1.7662556966"><ele>351</ele><time>2012-11-30T11:25:20Z</time></trkpt>
<trkpt lat="53.3606045087" lon="-1.7663566589"><ele>354</ele><time>2012-11-30T11:25:38Z</time></trkpt>
<trkpt lat="53.3607303301" lon="-1.7664564768"><ele>358</ele><time>2012-11-30T11:25:54Z</time></trkpt>
<trkpt lat="53.3608550072" lon="-1.7665519714"><ele>360</ele><time>2012-11-30T11:26:10Z</time></trkpt>
<trkpt lat="53.3609785080" lon="-1.7666575114"><ele>363</ele><time>2012-11-30T11:26:27Z</time></trkpt>
<trkpt lat="53.3610713323" lon="-1.7668236415"><ele>366</ele><time>2012-11-30T11:26:44Z</time></trkpt>
<trkpt lat="53.3611645063" lon="-1.7669926961"><ele>368</ele><time>2012-11-30T11:26:59Z</time></trkpt>
<trkpt lat="53.3612508456" lon="-1.7671730042"><ele>370</ele><time>2012-11-30T11:27:14Z</time></trkpt>
<trkpt lat="53.3613453229" lon="-1.7673581441"><ele>373</ele><time>2012-11-30T11:27:28Z</time></trkpt>
<trkpt lat="53.3614238421" lon="-1.7675490061"><ele>375</ele><time>2012-11-30T11:27:45Z</time></trkpt>
<trkpt lat="53.3614628474" lon="-1.7677651723"><ele>378</ele><time>2012-11-30T11:28:04Z</time></trkpt>
<trkpt lat="53.3615888278" lon="-1.7678573608"><ele>380</ele><time>2012-11-30T11:28:17Z</time></trkpt>
<trkpt lat="53.3616811752" lon="-1.7680333455"><ele>384</ele><time>2012-11-30T11:28:31Z</time></trkpt>
<trkpt lat="53.3617693265" lon="-1.7682060242"><ele>386</ele><time>2012-11-30T11:28:46Z</time></trkpt>
<trkpt lat="53.3618626595" lon="-1.7683786392"><ele>388</ele><time>2012-11-30T11:29:02Z</time></trkpt>
<trkpt lat="53.3619543393" lon="-1.7685579936"><ele>391</ele><time>2012-11-30T11:29:16Z</time></trkpt>
<trkpt lat="53.3620479902" lon="-1.7687213262"><ele>393</ele><time>2012-11-30T11:29:34Z</time></trkpt>
<trkpt lat="53.3621848424" lon="-1.7687494914"><ele>395</ele><time>2012-11-30T11:30:00Z</time></trkpt>
<trkpt lat="53.3623198191" lon="-1.7687566757"><ele>396</ele><time>2012-11-30T11:30:17Z</time></trkpt>
<trkpt lat="53.3624528249" lon="-1.7688109716"><ele>398</ele><time>2012-11-30T11:30:32Z</time></trkpt>
<trkpt lat="53.3625954946" lon="-1.7688278198"><ele>399</ele><time>2012-11-30T11:30:48Z</time></trkpt>
<trkpt lat="53.3627281825" lon="-1.7689128240"><ele>402</ele><time>2012-11-30T11:31:21Z</time></trkpt>
<trkpt lat="53.3628661791" lon="-1.7689910253"><ele>404</ele><time>2012-11-30T11:31:38Z</time></trkpt>
<trkpt lat="53.3630013466" lon="-1.7690628052"><ele>406</ele><time>2012-11-30T11:31:54Z</time></trkpt>
<trkpt lat="53.3631333351" lon="-1.7691133499"><ele>412</ele><time>2012-11-30T11:32:13Z</time></trkpt>
<trkpt lat="53.3632748286" lon="-1.7691218058"><ele>413</ele><time>2012-11-30T11:32:32Z</time></trkpt>
<trkpt lat="53.3634110133" lon="-1.7691166560"><ele>415</ele><time>2012-11-30T11:32:52Z</time></trkpt>
<trkpt lat="53.3635496775" lon="-1.7691491445"><ele>419</ele><time>2012-11-30T11:33:19Z</time></trkpt>
<trkpt lat="53.3636764844" lon="-1.7692380269"><ele>423</ele><time>2012-11-30T11:33:45Z</time></trkpt>
<trkpt lat="53.3637838364" lon="-1.7693754832"><ele>431</ele><time>2012-11-30T11:34:07Z</time></trkpt>
<trkpt lat="53.3639005025" lon="-1.7694988251"><ele>436</ele><time>2012-11-30T11:34:27Z</time></trkpt>
<trkpt lat="53.3640005112" lon="-1.7696621577"><ele>442</ele><time>2012-11-30T11:34:51Z</time></trkpt>
<trkpt lat="53.3641181628" lon="-1.7697756449"><ele>444</ele><time>2012-11-30T11:35:16Z</time></trkpt>
<trkpt lat="53.3642356555" lon="-1.7698943456"><ele>448</ele><time>2012-11-30T11:35:40Z</time></trkpt>
<trkpt lat="53.3643474897" lon="-1.7700276693"><ele>454</ele><time>2012-11-30T11:36:05Z</time></trkpt>
<trkpt lat="53.3644461632" lon="-1.7701859792"><ele>455</ele><time>2012-11-30T11:36:20Z</time></trkpt>
<trkpt lat="53.3645106634" lon="-1.7703948339"><ele>458</ele><time>2012-11-30T11:36:38Z</time></trkpt>
<trkpt lat="53.3645743370" lon="-1.7706091563"><ele>462</ele><time>2012-11-30T11:36:54Z</time></trkpt>
<trkpt lat="53.3646334966" lon="-1.7708248138"><ele>464</ele><time>2012-11-30T11:37:09Z</time></trkpt>
<trkpt lat="53.3647146543" lon="-1.7710219701"><ele>466</ele><time>2012-11-30T11:37:24Z</time></trkpt>
<trkpt lat="53.3647806803" lon="-1.7712284724"><ele>469</ele><time>2012-11-30T11:37:41Z</time></trkpt>
<trkpt lat="53.3648733457" lon="-1.7713976542"><ele>472</ele><time>2012-11-30T11:39:17Z</time></trkpt>
<trkpt lat="53.3648365021" lon="-1.7716314952"><ele>477</ele><time>2012-11-30T11:53:16Z</time></trkpt>
<trkpt lat="53.3648174922" lon="-1.7718696594"><ele>477</ele><time>2012-11-30T11:53:29Z</time></trkpt>
<trkpt lat="53.3647848447" lon="-1.7720896403"><ele>476</ele><time>2012-11-30T11:53:42Z</time></trkpt>
<trkpt lat="53.3647635142" lon="-1.7723193487"><ele>476</ele><time>2012-11-30T11:54:03Z</time></trkpt>
<trkpt lat="53.3647225062" lon="-1.7725374858"><ele>475</ele><time>2012-11-30T11:54:16Z</time></trkpt>
<trkpt lat="53.3646478335" lon="-1.7727386475"><ele>474</ele><time>2012-11-30T11:54:31Z</time></trkpt>
<trkpt lat="53.3645778338" lon="-1.7729349772"><ele>471</ele><time>2012-11-30T11:54:45Z</time></trkpt>
<trkpt lat="53.3644968351" lon="-1.7731348038"><ele>468</ele><time>2012-11-30T11:55:00Z</time></trkpt>
<trkpt lat="53.3644330025" lon="-1.7733336767"><ele>465</ele><time>2012-11-30T11:55:12Z</time></trkpt>
<trkpt lat="53.3643740018" lon="-1.7735503515"><ele>460</ele><time>2012-11-30T11:55:26Z</time></trkpt>
<trkpt lat="53.3643271764" lon="-1.7737730026"><ele>456</ele><time>2012-11-30T11:55:39Z</time></trkpt>
<trkpt lat="53.3642448425" lon="-1.7739521662"><ele>455</ele><time>2012-11-30T11:55:52Z</time></trkpt>
<trkpt lat="53.3641599973" lon="-1.7741471608"><ele>452</ele><time>2012-11-30T11:56:06Z</time></trkpt>
<trkpt lat="53.3641150157" lon="-1.7743621826"><ele>449</ele><time>2012-11-30T11:56:25Z</time></trkpt>
<trkpt lat="53.3640281677" lon="-1.7745395025"><ele>447</ele><time>2012-11-30T11:56:41Z</time></trkpt>
<trkpt lat="53.3639533361" lon="-1.7747478485"><ele>446</ele><time>2012-11-30T11:56:53Z</time></trkpt>
<trkpt lat="53.3638638179" lon="-1.7749373118"><ele>443</ele><time>2012-11-30T11:57:10Z</time></trkpt>
<trkpt lat="53.3637936592" lon="-1.7751314799"><ele>441</ele><time>2012-11-30T11:57:22Z</time></trkpt>
<trkpt lat="53.3637134870" lon="-1.7753140132"><ele>439</ele><time>2012-11-30T11:57:35Z</time></trkpt>
<trkpt lat="53.3636366526" lon="-1.7755065282"><ele>435</ele><time>2012-11-30T11:57:50Z</time></trkpt>
<trkpt lat="53.3635521571" lon="-1.7757021586"><ele>434</ele><time>2012-11-30T11:58:02Z</time></trkpt>
<trkpt lat="53.3635011673" lon="-1.7759155273"><ele>432</ele><time>2012-11-30T11:58:13Z</time></trkpt>
<trkpt lat="53.3634338379" lon="-1.7761228561"><ele>430</ele><time>2012-11-30T11:58:25Z</time></trkpt>
<trkpt lat="53.3633591652" lon="-1.7763253530"><ele>428</ele><time>2012-11-30T11:58:38Z</time></trkpt>
<trkpt lat="53.3632829984" lon="-1.7765144984"><ele>427</ele><time>2012-11-30T11:58:49Z</time></trkpt>
<trkpt lat="53.3632245064" lon="-1.7767238617"><ele>426</ele><time>2012-11-30T11:59:02Z</time></trkpt>
<trkpt lat="53.3631679853" lon="-1.7769528071"><ele>425</ele><time>2012-11-30T11:59:14Z</time></trkpt>
<trkpt lat="53.3631003380" lon="-1.7771626790"><ele>423</ele><time>2012-11-30T11:59:27Z</time></trkpt>
<trkpt lat="53.3630368233" lon="-1.7773726781"><ele>422</ele><time>2012-11-30T11:59:40Z</time></trkpt>
<trkpt lat="53.3629738490" lon="-1.7775776545"><ele>421</ele><time>2012-11-30T11:59:52Z</time></trkpt>
<trkpt lat="53.3628976822" lon="-1.7777891795"><ele>420</ele><time>2012-11-30T12:00:04Z</time></trkpt>
<trkpt lat="53.3628479958" lon="-1.7780045191"><ele>420</ele><time>2012-11-30T12:00:20Z</time></trkpt>
<trkpt lat="53.3627941767" lon="-1.7782140096"><ele>419</ele><time>2012-11-30T12:00:35Z</time></trkpt>
<trkpt lat="53.3627186775" lon="-1.7784098307"><ele>419</ele><time>2012-11-30T12:00:47Z</time></trkpt>
<trkpt lat="53.3626531601" lon="-1.7786160151"><ele>418</ele><time>2012-11-30T12:01:00Z</time></trkpt>
<trkpt lat="53.3625725110" lon="-1.7788085302"><ele>419</ele><time>2012-11-30T12:01:13Z</time></trkpt>
<trkpt lat="53.3625263214" lon="-1.7790333430"><ele>419</ele><time>2012-11-30T12:01:27Z</time></trkpt>
<trkpt lat="53.3624456724" lon="-1.7792289734"><ele>420</ele><time>2012-11-30T12:01:47Z</time></trkpt>
<trkpt lat="53.3624131521" lon="-1.7794605255"><ele>421</ele><time>2012-11-30T12:02:00Z</time></trkpt>
<trkpt lat="53.3623668353" lon="-1.7796723048"><ele>422</ele><time>2012-11-30T12:02:14Z</time></trkpt>
<trkpt lat="53.3623171806" lon="-1.7798884710"><ele>423</ele><time>2012-11-30T12:02:28Z</time></trkpt>
<trkpt lat="53.3622740110" lon="-1.7801056544"><ele>426</ele><time>2012-11-30T12:02:44Z</time></trkpt>
<trkpt lat="53.3622385025" lon="-1.7803261439"><ele>430</ele><time>2012-11-30T12:03:27Z</time></trkpt>
<trkpt lat="53.3621610006" lon="-1.7805286407"><ele>431</ele><time>2012-11-30T12:03:44Z</time></trkpt>
<trkpt lat="53.3621326764" lon="-1.7807513555"><ele>432</ele><time>2012-11-30T12:03:55Z</time></trkpt>
<trkpt lat="53.3620898247" lon="-1.7809834798"><ele>432</ele><time>2012-11-30T12:04:09Z</time></trkpt>
<trkpt lat="53.3620435079" lon="-1.7812001546"><ele>434</ele><time>2012-11-30T12:04:23Z</time></trkpt>
<trkpt lat="53.3620306651" lon="-1.7814360301"><ele>434</ele><time>2012-11-30T12:04:37Z</time></trkpt>
<trkpt lat="53.3619573275" lon="-1.7816448212"><ele>433</ele><time>2012-11-30T12:04:56Z</time></trkpt>
<trkpt lat="53.3619229952" lon="-1.7818745295"><ele>433</ele><time>2012-11-30T12:05:09Z</time></trkpt>
<trkpt lat="53.3618688265" lon="-1.7820988337"><ele>434</ele><time>2012-11-30T12:05:22Z</time></trkpt>
<trkpt lat="53.3618181547" lon="-1.7823230108"><ele>434</ele><time>2012-11-30T12:05:36Z</time></trkpt>
<trkpt lat="53.3617333412" lon="-1.7825054804"><ele>434</ele><time>2012-11-30T12:05:50Z</time></trkpt>
<trkpt lat="53.3616443316" lon="-1.7826963425"><ele>433</ele><time>2012-11-30T12:06:04Z</time></trkpt>
<trkpt lat="53.3615388234" lon="-1.7828664780"><ele>433</ele><time>2012-11-30T12:06:17Z</time></trkpt>
<trkpt lat="53.3614329974" lon="-1.7830139796"><ele>433</ele><time>2012-11-30T12:06:33Z</time></trkpt>
<trkpt lat="53.3614223480" lon="-1.7832389832"><ele>431</ele><time>2012-11-30T12:10:04Z</time></trkpt>
<trkpt lat="53.3612973213" lon="-1.7831546783"><ele>428</ele><time>2012-11-30T12:10:43Z</time></trkpt>
<trkpt lat="53.3611808459" lon="-1.7832808177"><ele>421</ele><time>2012-11-30T12:11:11Z</time></trkpt>
<trkpt lat="53.3610771815" lon="-1.7834338506"><ele>416</ele><time>2012-11-30T12:11:44Z</time></trkpt>
<trkpt lat="53.3609640121" lon="-1.7835661570"><ele>409</ele><time>2012-11-30T12:12:16Z</time></trkpt>
<trkpt lat="53.3608721733" lon="-1.7837331772"><ele>404</ele><time>2012-11-30T12:12:35Z</time></trkpt>
<trkpt lat="53.3607611656" lon="-1.7838693619"><ele>401</ele><time>2012-11-30T12:12:53Z</time></trkpt>
<trkpt lat="53.3606636683" lon="-1.7840263367"><ele>399</ele><time>2012-11-30T12:13:14Z</time></trkpt>
<trkpt lat="53.3605188370" lon="-1.7840226491"><ele>394</ele><time>2012-11-30T12:14:12Z</time></trkpt>
<trkpt lat="53.3604736646" lon="-1.7842374802"><ele>392</ele><time>2012-11-30T12:15:09Z</time></trkpt>
<trkpt lat="53.3604311625" lon="-1.7844666799"><ele>391</ele><time>2012-11-30T12:15:22Z</time></trkpt>
<trkpt lat="53.3603883425" lon="-1.7846885045"><ele>393</ele><time>2012-11-30T12:15:35Z</time></trkpt>
<trkpt lat="53.3603356679" lon="-1.7849068324"><ele>394</ele><time>2012-11-30T12:15:47Z</time></trkpt>
<trkpt lat="53.3602805138" lon="-1.7851258596"><ele>394</ele><time>2012-11-30T12:16:00Z</time></trkpt>
<trkpt lat="53.3601921717" lon="-1.7853128433"><ele>394</ele><time>2012-11-30T12:16:13Z</time></trkpt>
<trkpt lat="53.3600980123" lon="-1.7854828517"><ele>391</ele><time>2012-11-30T12:16:36Z</time></trkpt>
<trkpt lat="53.3599926631" lon="-1.7856384913"><ele>388</ele><time>2012-11-30T12:17:29Z</time></trkpt>
<trkpt lat="53.3598833402" lon="-1.7857835134"><ele>386</ele><time>2012-11-30T12:17:45Z</time></trkpt>
<trkpt lat="53.3597574870" lon="-1.7858736674"><ele>386</ele><time>2012-11-30T12:17:58Z</time></trkpt>
<trkpt lat="53.3596363386" lon="-1.7859891891"><ele>383</ele><time>2012-11-30T12:18:10Z</time></trkpt>
<trkpt lat="53.3595140139" lon="-1.7861006419"><ele>380</ele><time>2012-11-30T12:18:26Z</time></trkpt>
<trkpt lat="53.3593756676" lon="-1.7861493429"><ele>376</ele><time>2012-11-30T12:18:45Z</time></trkpt>
<trkpt lat="53.3592346509" lon="-1.7861358643"><ele>373</ele><time>2012-11-30T12:19:00Z</time></trkpt>
<trkpt lat="53.3591001511" lon="-1.7861011505"><ele>366</ele><time>2012-11-30T12:19:23Z</time></trkpt>
<trkpt lat="53.3589718183" lon="-1.7861974716"><ele>364</ele><time>2012-11-30T12:19:50Z</time></trkpt>
<trkpt lat="53.3588370005" lon="-1.7862003326"><ele>361</ele><time>2012-11-30T12:20:05Z</time></trkpt>
<trkpt lat="53.3586968422" lon="-1.7862363180"><ele>358</ele><time>2012-11-30T12:20:27Z</time></trkpt>
<trkpt lat="53.3585645040" lon="-1.7862913132"><ele>354</ele><time>2012-11-30T12:20:46Z</time></trkpt>
<trkpt lat="53.3584225019" lon="-1.7863035202"><ele>350</ele><time>2012-11-30T12:21:16Z</time></trkpt>
<trkpt lat="53.3582859993" lon="-1.7862691879"><ele>345</ele><time>2012-11-30T12:21:36Z</time></trkpt>
<trkpt lat="53.3581595103" lon="-1.7863779704"><ele>341</ele><time>2012-11-30T12:22:03Z</time></trkpt>
<trkpt lat="53.3580254873" lon="-1.7863325119"><ele>339</ele><time>2012-11-30T12:22:23Z</time></trkpt>
<trkpt lat="53.3579541524" lon="-1.7861408234"><ele>338</ele><time>2012-11-30T12:22:57Z</time></trkpt>
<trkpt lat="53.3578491529" lon="-1.7862866720"><ele>335</ele><time>2012-11-30T12:23:22Z</time></trkpt>
<trkpt lat="53.3577144941" lon="-1.7863355001"><ele>332</ele><time>2012-11-30T12:23:36Z</time></trkpt>
<trkpt lat="53.3576189995" lon="-1.7865053177"><ele>330</ele><time>2012-11-30T12:24:07Z</time></trkpt>
<trkpt lat="53.3574871699" lon="-1.7865975062"><ele>327</ele><time>2012-11-30T12:24:27Z</time></trkpt>
<trkpt lat="53.3573603312" lon="-1.7866843541"><ele>324</ele><time>2012-11-30T12:24:41Z</time></trkpt>
<trkpt lat="53.3572366714" lon="-1.7867984772"><ele>323</ele><time>2012-11-30T12:24:53Z</time></trkpt>
<trkpt lat="53.3571079890" lon="-1.7868939718"><ele>322</ele><time>2012-11-30T12:25:05Z</time></trkpt>
<trkpt lat="53.3569713275" lon="-1.7869643529"><ele>317</ele><time>2012-11-30T12:26:04Z</time></trkpt>
<trkpt lat="53.3568463326" lon="-1.7870770137"><ele>313</ele><time>2012-11-30T12:26:18Z</time></trkpt>
<trkpt lat="53.3567166646" lon="-1.7871418635"><ele>310</ele><time>2012-11-30T12:26:31Z</time></trkpt>
<trkpt lat="53.3565968196" lon="-1.7872496923"><ele>308</ele><time>2012-11-30T12:26:46Z</time></trkpt>
<trkpt lat="53.3564654986" lon="-1.7873195012"><ele>307</ele><time>2012-11-30T12:27:01Z</time></trkpt>
<trkpt lat="53.3563401540" lon="-1.7872119904"><ele>303</ele><time>2012-11-30T12:27:19Z</time></trkpt>
<trkpt lat="53.3562369982" lon="-1.7870454788"><ele>298</ele><time>2012-11-30T12:27:33Z</time></trkpt>
<trkpt lat="53.3561204910" lon="-1.7869138082"><ele>294</ele><time>2012-11-30T12:27:47Z</time></trkpt>
<trkpt lat="53.3560453415" lon="-1.7867148081"><ele>289</ele><time>2012-11-30T12:28:05Z</time></trkpt>
<trkpt lat="53.3560295105" lon="-1.7864836375"><ele>285</ele><time>2012-11-30T12:28:19Z</time></trkpt>
<trkpt lat="53.3560163180" lon="-1.7862471898"><ele>286</ele><time>2012-11-30T12:28:33Z</time></trkpt>
<trkpt lat="53.3559945107" lon="-1.7860169729"><ele>285</ele><time>2012-11-30T12:28:50Z</time></trkpt>
<trkpt lat="53.3559916814" lon="-1.7857878367"><ele>284</ele><time>2012-11-30T12:29:03Z</time></trkpt>
<trkpt lat="53.3560428301" lon="-1.7855713526"><ele>282</ele><time>2012-11-30T12:29:16Z</time></trkpt>
<trkpt lat="53.3559803327" lon="-1.7857918421"><ele>279</ele><time>2012-11-30T12:30:03Z</time></trkpt>
<trkpt lat="53.3559793472" lon="-1.7855596542"><ele>278</ele><time>2012-11-30T12:30:56Z</time></trkpt>
<trkpt lat="53.3560283343" lon="-1.7853446960"><ele>278</ele><time>2012-11-30T12:31:10Z</time></trkpt>
<trkpt lat="53.3560064952" lon="-1.7851216634"><ele>274</ele><time>2012-11-30T12:32:11Z</time></trkpt>
<trkpt lat="53.3559128443" lon="-1.7849503199"><ele>274</ele><time>2012-11-30T12:32:28Z</time></trkpt>
<trkpt lat="53.3558010101" lon="-1.7848080317"><ele>271</ele><time>2012-11-30T12:32:51Z</time></trkpt>
<trkpt lat="53.3556920052" lon="-1.7846723557"><ele>267</ele><time>2012-11-30T12:33:04Z</time></trkpt>
<trkpt lat="53.3555659930" lon="-1.7845678329"><ele>264</ele><time>2012-11-30T12:33:21Z</time></trkpt>
<trkpt lat="53.3554360072" lon="-1.7844651540"><ele>262</ele><time>2012-11-30T12:33:38Z</time></trkpt>
<trkpt lat="53.3553158442" lon="-1.7843528112"><ele>262</ele><time>2012-11-30T12:33:53Z</time></trkpt>
<trkpt lat="53.3551968257" lon="-1.7842353185"><ele>261</ele><time>2012-11-30T12:34:08Z</time></trkpt>
<trkpt lat="53.3550774892" lon="-1.7841030121"><ele>259</ele><time>2012-11-30T12:34:29Z</time></trkpt>
<trkpt lat="53.3549524943" lon="-1.7840019862"><ele>256</ele><time>2012-11-30T12:34:44Z</time></trkpt>
<trkpt lat="53.3548121770" lon="-1.7839485168"><ele>253</ele><time>2012-11-30T12:35:12Z</time></trkpt>
<trkpt lat="53.3546833356" lon="-1.7838606517"><ele>250</ele><time>2012-11-30T12:35:24Z</time></trkpt>
<trkpt lat="53.3545454979" lon="-1.7838011424"><ele>248</ele><time>2012-11-30T12:35:40Z</time></trkpt>
<trkpt lat="53.3544095039" lon="-1.7838258108"><ele>245</ele><time>2012-11-30T12:35:54Z</time></trkpt>
<trkpt lat="53.3542874972" lon="-1.7837096532"><ele>242</ele><time>2012-11-30T12:36:08Z</time></trkpt>
<trkpt lat="53.3541528384" lon="-1.7836623510"><ele>240</ele><time>2012-11-30T12:36:24Z</time></trkpt>
<trkpt lat="53.3540124893" lon="-1.7836891810"><ele>239</ele><time>2012-11-30T12:36:40Z</time></trkpt>
<trkpt lat="53.3538811684" lon="-1.7836211522"><ele>236</ele><time>2012-11-30T12:37:10Z</time></trkpt>
<trkpt lat="53.3537528356" lon="-1.7835194906"><ele>235</ele><time>2012-11-30T12:37:22Z</time></trkpt>
<trkpt lat="53.3536266645" lon="-1.7834358215"><ele>234</ele><time>2012-11-30T12:37:33Z</time></trkpt>
<trkpt lat="53.3534896533" lon="-1.7833609899"><ele>233</ele><time>2012-11-30T12:37:45Z</time></trkpt>
<trkpt lat="53.3533611615" lon="-1.7832841873"><ele>231</ele><time>2012-11-30T12:38:01Z</time></trkpt>
<trkpt lat="53.3532261531" lon="-1.7832120260"><ele>229</ele><time>2012-11-30T12:38:12Z</time></trkpt>
<trkpt lat="53.3530909856" lon="-1.7831418355"><ele>227</ele><time>2012-11-30T12:38:23Z</time></trkpt>
<trkpt lat="53.3529508273" lon="-1.7830733617"><ele>225</ele><time>2012-11-30T12:38:36Z</time></trkpt>
<trkpt lat="53.3528200150" lon="-1.7830011368"><ele>224</ele><time>2012-11-30T12:38:47Z</time></trkpt>
<trkpt lat="53.3526923180" lon="-1.7829195023"><ele>224</ele><time>2012-11-30T12:38:58Z</time></trkpt>
<trkpt lat="53.3525578181" lon="-1.7828428268"><ele>222</ele><time>2012-11-30T12:39:10Z</time></trkpt>
<trkpt lat="53.3524216652" lon="-1.7827639898"><ele>222</ele><time>2012-11-30T12:39:21Z</time></trkpt>
<trkpt lat="53.3522923470" lon="-1.7826891581"><ele>222</ele><time>2012-11-30T12:39:32Z</time></trkpt>
<trkpt lat="53.3521678289" lon="-1.7826023102"><ele>222</ele><time>2012-11-30T12:39:42Z</time></trkpt>
<trkpt lat="53.3520416578" lon="-1.7824978511"><ele>221</ele><time>2012-11-30T12:39:54Z</time></trkpt>
<trkpt lat="53.3519041697" lon="-1.7824485143"><ele>221</ele><time>2012-11-30T12:40:05Z</time></trkpt>
<trkpt lat="53.3517736753" lon="-1.7823381424"><ele>219</ele><time>2012-11-30T12:40:17Z</time></trkpt>
<trkpt lat="53.3516368230" lon="-1.7822543462"><ele>217</ele><time>2012-11-30T12:40:28Z</time></trkpt>
<trkpt lat="53.3515088399" lon="-1.7821554820"><ele>216</ele><time>2012-11-30T12:40:38Z</time></trkpt>
<trkpt lat="53.3513758341" lon="-1.7820488612"><ele>215</ele><time>2012-11-30T12:40:50Z</time></trkpt>
<trkpt lat="53.3512516658" lon="-1.7819604874"><ele>214</ele><time>2012-11-30T12:41:00Z</time></trkpt>
<trkpt lat="53.3511246681" lon="-1.7818536758"><ele>214</ele><time>2012-11-30T12:41:12Z</time></trkpt>
<trkpt lat="53.3510068258" lon="-1.7817338308"><ele>213</ele><time>2012-11-30T12:41:24Z</time></trkpt>
<trkpt lat="53.3508720080" lon="-1.7816746394"><ele>212</ele><time>2012-11-30T12:41:47Z</time></trkpt>
<trkpt lat="53.3507465045" lon="-1.7815606435"><ele>210</ele><time>2012-11-30T12:41:59Z</time></trkpt>
<trkpt lat="53.3506251653" lon="-1.7814458211"><ele>210</ele><time>2012-11-30T12:42:13Z</time></trkpt>
<trkpt lat="53.3504986763" lon="-1.7813218435"><ele>208</ele><time>2012-11-30T12:42:24Z</time></trkpt>
<trkpt lat="53.3503875097" lon="-1.7811941783"><ele>209</ele><time>2012-11-30T12:42:34Z</time></trkpt>
<trkpt lat="53.3502686818" lon="-1.7810868581"><ele>207</ele><time>2012-11-30T12:42:45Z</time></trkpt>
<trkpt lat="53.3501458486" lon="-1.7809906642"><ele>207</ele><time>2012-11-30T12:42:55Z</time></trkpt>
<trkpt lat="53.3500214895" lon="-1.7808774948"><ele>206</ele><time>2012-11-30T12:43:06Z</time></trkpt>
<trkpt lat="53.3498983383" lon="-1.7807575226"><ele>205</ele><time>2012-11-30T12:43:18Z</time></trkpt>
<trkpt lat="53.3497591654" lon="-1.7807334900"><ele>204</ele><time>2012-11-30T12:44:13Z</time></trkpt>
<trkpt lat="53.3496431669" lon="-1.7808809916"><ele>203</ele><time>2012-11-30T12:44:28Z</time></trkpt>
<trkpt lat="53.3495354970" lon="-1.7810434977"><ele>202</ele><time>2012-11-30T12:44:40Z</time></trkpt>
<trkpt lat="53.3494400024" lon="-1.7812196732"><ele>202</ele><time>2012-11-30T12:44:53Z</time></trkpt>
<trkpt lat="53.3493414879" lon="-1.7813798269"><ele>202</ele><time>2012-11-30T12:45:05Z</time></trkpt>
<trkpt lat="53.3492088318" lon="-1.7813201904"><ele>202</ele><time>2012-11-30T12:45:18Z</time></trkpt>
<trkpt lat="53.3491036733" lon="-1.7811731974"><ele>204</ele><time>2012-11-30T12:45:32Z</time></trkpt>
<trkpt lat="53.3489930153" lon="-1.7810354869"><ele>202</ele><time>2012-11-30T12:45:44Z</time></trkpt>
<trkpt lat="53.3488836606" lon="-1.7808821360"><ele>202</ele><time>2012-11-30T12:45:56Z</time></trkpt>
<trkpt lat="53.3487704913" lon="-1.7807399750"><ele>201</ele><time>2012-11-30T12:46:08Z</time></trkpt>
<trkpt lat="53.3486605008" lon="-1.7806074778"><ele>199</ele><time>2012-11-30T12:46:19Z</time></trkpt>
<trkpt lat="53.3485471725" lon="-1.7804816564"><ele>198</ele><time>2012-11-30T12:46:33Z</time></trkpt>
<trkpt lat="53.3484536807" lon="-1.7803150177"><ele>198</ele><time>2012-11-30T12:46:44Z</time></trkpt>
<trkpt lat="53.3483516693" lon="-1.7801468531"><ele>198</ele><time>2012-11-30T12:47:05Z</time></trkpt>
<trkpt lat="53.3482408206" lon="-1.7799776713"><ele>198</ele><time>2012-11-30T12:47:18Z</time></trkpt>
<trkpt lat="53.3481476784" lon="-1.7798116684"><ele>198</ele><time>2012-11-30T12:47:29Z</time></trkpt>
<trkpt lat="53.3480545044" lon="-1.7796366374"><ele>197</ele><time>2012-11-30T12:47:42Z</time></trkpt>
<trkpt lat="53.3479866664" lon="-1.7794375102"><ele>197</ele><time>2012-11-30T12:47:55Z</time></trkpt>
<trkpt lat="53.3478619893" lon="-1.7793241501"><ele>199</ele><time>2012-11-30T12:48:43Z</time></trkpt>
<trkpt lat="53.3477263451" lon="-1.7792929967"><ele>199</ele><time>2012-11-30T12:48:58Z</time></trkpt>
<trkpt lat="53.3476056735" lon="-1.7791790009"><ele>199</ele><time>2012-11-30T12:49:08Z</time></trkpt>
<trkpt lat="53.3474868457" lon="-1.7790229797"><ele>198</ele><time>2012-11-30T12:49:20Z</time></trkpt>
<trkpt lat="53.3473921776" lon="-1.7788401922"><ele>198</ele><time>2012-11-30T12:49:31Z</time></trkpt>
<trkpt lat="53.3472998301" lon="-1.7786541621"><ele>198</ele><time>2012-11-30T12:49:41Z</time></trkpt>
<trkpt lat="53.3472319921" lon="-1.7784538269"><ele>197</ele><time>2012-11-30T12:49:53Z</time></trkpt>
<trkpt lat="53.3471423467" lon="-1.7782630285"><ele>196</ele><time>2012-11-30T12:50:08Z</time></trkpt>
<trkpt lat="53.3470411619" lon="-1.7780843099"><ele>194</ele><time>2012-11-30T12:50:32Z</time></trkpt>
<trkpt lat="53.3469476700" lon="-1.7779195150"><ele>193</ele><time>2012-11-30T12:50:42Z</time></trkpt>
<trkpt lat="53.3468436559" lon="-1.7777543386"><ele>193</ele><time>2012-11-30T12:50:54Z</time></trkpt>
<trkpt lat="53.3467469851" lon="-1.7775823593"><ele>192</ele><time>2012-11-30T12:51:05Z</time></trkpt>
<trkpt lat="53.3466536522" lon="-1.7773979823"><ele>192</ele><time>2012-11-30T12:51:15Z</time></trkpt>
<trkpt lat="53.3465641658" lon="-1.7772126516"><ele>192</ele><time>2012-11-30T12:51:27Z</time></trkpt>
<trkpt lat="53.3464740117" lon="-1.7770329793"><ele>191</ele><time>2012-11-30T12:51:39Z</time></trkpt>
<trkpt lat="53.3463720004" lon="-1.7768779755"><ele>191</ele><time>2012-11-30T12:51:50Z</time></trkpt>
<trkpt lat="53.3462611516" lon="-1.7767354965"><ele>190</ele><time>2012-11-30T12:52:01Z</time></trkpt>
<trkpt lat="53.3461386681" lon="-1.7766220093"><ele>188</ele><time>2012-11-30T12:52:12Z</time></trkpt>
<trkpt lat="53.3460226695" lon="-1.7765064875"><ele>188</ele><time>2012-11-30T12:52:24Z</time></trkpt>
<trkpt lat="53.3458998362" lon="-1.7763951619"><ele>187</ele><time>2012-11-30T12:52:39Z</time></trkpt>
<trkpt lat="53.3457905134" lon="-1.7762420019"><ele>186</ele><time>2012-11-30T12:52:51Z</time></trkpt>
<trkpt lat="53.3456673304" lon="-1.7761406581"><ele>185</ele><time>2012-11-30T12:53:12Z</time></trkpt>
<trkpt lat="53.3455589930" lon="-1.7760026932"><ele>185</ele><time>2012-11-30T12:53:27Z</time></trkpt>
<trkpt lat="53.3454499880" lon="-1.7758341471"><ele>185</ele><time>2012-11-30T12:53:39Z</time></trkpt>
<trkpt lat="53.3453405062" lon="-1.7756928126"><ele>184</ele><time>2012-11-30T12:53:52Z</time></trkpt>
<trkpt lat="53.3452186584" lon="-1.7755861918"><ele>183</ele><time>2012-11-30T12:54:06Z</time></trkpt>
<trkpt lat="53.3450878461" lon="-1.7755011876"><ele>182</ele><time>2012-11-30T12:54:17Z</time></trkpt>
<trkpt lat="53.3449571609" lon="-1.7754038493"><ele>182</ele><time>2012-11-30T12:54:30Z</time></trkpt>
<trkpt lat="53.3448221525" lon="-1.7753379822"><ele>181</ele><time>2012-11-30T12:54:53Z</time></trkpt>
<trkpt lat="53.3446878433" lon="-1.7752799988"><ele>181</ele><time>2012-11-30T12:55:11Z</time></trkpt>
<trkpt lat="53.3445521673" lon="-1.7752684911"><ele>181</ele><time>2012-11-30T12:55:25Z</time></trkpt>
<trkpt lat="53.3444129944" lon="-1.7753446579"><ele>181</ele><time>2012-11-30T12:55:44Z</time></trkpt>
<trkpt lat="53.3442781766" lon="-1.7753634771"><ele>181</ele><time>2012-11-30T12:55:57Z</time></trkpt>
<trkpt lat="53.3441393216" lon="-1.7753068288"><ele>182</ele><time>2012-11-30T12:56:11Z</time></trkpt>
<trkpt lat="53.3440135002" lon="-1.7752221425"><ele>183</ele><time>2012-11-30T12:56:26Z</time></trkpt>
<trkpt lat="53.3438816706" lon="-1.7751503627"><ele>183</ele><time>2012-11-30T12:56:41Z</time></trkpt>
<trkpt lat="53.3438941638" lon="-1.7749111811"><ele>183</ele><time>2012-11-30T12:56:56Z</time></trkpt>
<trkpt lat="53.3439296722" lon="-1.7746753057"><ele>183</ele><time>2012-11-30T12:57:09Z</time></trkpt>
<trkpt lat="53.3439490000" lon="-1.7744486491"><ele>184</ele><time>2012-11-30T12:57:22Z</time></trkpt>
<trkpt lat="53.3440004985" lon="-1.7742248535"><ele>185</ele><time>2012-11-30T12:57:37Z</time></trkpt>
<trkpt lat="53.3439476649" lon="-1.7739968618"><ele>185</ele><time>2012-11-30T12:58:08Z</time></trkpt>
<trkpt lat="53.3441006660" lon="-1.7743256887"><time>2012-11-30T12:59:08Z</time></trkpt>
<trkpt lat="53.3440805117" lon="-1.7740636826"><ele>185</ele><time>2012-11-30T12:59:18Z</time></trkpt>
<trkpt lat="53.3440271695" lon="-1.7738559723"><ele>185</ele><time>2012-11-30T12:59:28Z</time></trkpt>
<trkpt lat="53.3440213203" lon="-1.7740983327"><ele>185</ele><time>2012-11-30T12:59:46Z</time></trkpt>
<trkpt lat="53.3439641635" lon="-1.7738843282"><ele>184</ele><time>2012-11-30T13:00:48Z</time></trkpt>
<trkpt lat="53.3440070152" lon="-1.7736546834"><ele>183</ele><time>2012-11-30T13:01:33Z</time></trkpt>
<trkpt lat="53.3440183322" lon="-1.7734186808"><ele>184</ele><time>2012-11-30T13:01:45Z</time></trkpt>
<trkpt lat="53.3440243403" lon="-1.7731901805"><ele>184</ele><time>2012-11-30T13:01:58Z</time></trkpt>
<trkpt lat="53.3440528234" lon="-1.7729563395"><ele>184</ele><time>2012-11-30T13:02:10Z</time></trkpt>
<trkpt lat="53.3440948486" lon="-1.7727173487"><ele>184</ele><time>2012-11-30T13:02:22Z</time></trkpt>
<trkpt lat="53.3441974958" lon="-1.7725606918"><ele>185</ele><time>2012-11-30T13:02:34Z</time></trkpt>
<trkpt lat="53.3442836761" lon="-1.7723569870"><ele>185</ele><time>2012-11-30T13:02:46Z</time></trkpt>
<trkpt lat="53.3443726540" lon="-1.7721811930"><ele>185</ele><time>2012-11-30T13:02:59Z</time></trkpt>
<trkpt lat="53.3443834941" lon="-1.7719483058"><ele>185</ele><time>2012-11-30T13:03:14Z</time></trkpt>
<trkpt lat="53.3444490115" lon="-1.7717353185"><ele>185</ele><time>2012-11-30T13:03:26Z</time></trkpt>
<trkpt lat="53.3445438385" lon="-1.7715665181"><ele>185</ele><time>2012-11-30T13:03:38Z</time></trkpt>
<trkpt lat="53.3446406682" lon="-1.7713844935"><ele>184</ele><time>2012-11-30T13:03:49Z</time></trkpt>
<trkpt lat="53.3447241783" lon="-1.7711891810"><ele>184</ele><time>2012-11-30T13:04:00Z</time></trkpt>
<trkpt lat="53.3447999954" lon="-1.7709898631"><ele>184</ele><time>2012-11-30T13:04:12Z</time></trkpt>
<trkpt lat="53.3449088415" lon="-1.7708388646"><ele>184</ele><time>2012-11-30T13:04:22Z</time></trkpt>
<trkpt lat="53.3449879964" lon="-1.7706516902"><ele>183</ele><time>2012-11-30T13:04:34Z</time></trkpt>
<trkpt lat="53.3449634870" lon="-1.7704278310"><ele>183</ele><time>2012-11-30T13:04:49Z</time></trkpt>
<trkpt lat="53.3449344953" lon="-1.7701936722"><ele>183</ele><time>2012-11-30T13:05:02Z</time></trkpt>
<trkpt lat="53.3449503263" lon="-1.7699638367"><ele>184</ele><time>2012-11-30T13:05:13Z</time></trkpt>
<trkpt lat="53.3450110118" lon="-1.7697578430"><ele>184</ele><time>2012-11-30T13:05:25Z</time></trkpt>
<trkpt lat="53.3450530052" lon="-1.7695248286"><ele>184</ele><time>2012-11-30T13:05:39Z</time></trkpt>
<trkpt lat="53.3450856527" lon="-1.7692888260"><ele>183</ele><time>2012-11-30T13:05:52Z</time></trkpt>
<trkpt lat="53.3451066653" lon="-1.7690495173"><ele>183</ele><time>2012-11-30T13:06:04Z</time></trkpt>
<trkpt lat="53.3451233228" lon="-1.7688156764"><ele>182</ele><time>2012-11-30T13:06:17Z</time></trkpt>
<trkpt lat="53.3451341629" lon="-1.7685789744"><ele>181</ele><time>2012-11-30T13:06:29Z</time></trkpt>
<trkpt lat="53.3451345126" lon="-1.7683351517"><ele>181</ele><time>2012-11-30T13:06:40Z</time></trkpt>
<trkpt lat="53.3451361656" lon="-1.7680964788"><ele>180</ele><time>2012-11-30T13:06:50Z</time></trkpt>
<trkpt lat="53.3451290131" lon="-1.7678693136"><ele>180</ele><time>2012-11-30T13:07:05Z</time></trkpt>
<trkpt lat="53.3451253255" lon="-1.7676388423"><ele>180</ele><time>2012-11-30T13:07:16Z</time></trkpt>
<trkpt lat="53.3450279872" lon="-1.7674334844"><ele>179</ele><time>2012-11-30T13:07:26Z</time></trkpt>
<trkpt lat="53.3449206670" lon="-1.7672898610"><ele>179</ele><time>2012-11-30T13:07:38Z</time></trkpt>
<trkpt lat="53.3448364894" lon="-1.7670991898"><ele>178</ele><time>2012-11-30T13:07:51Z</time></trkpt>
<trkpt lat="53.3447664897" lon="-1.7668888092"><ele>177</ele><time>2012-11-30T13:08:04Z</time></trkpt>
<trkpt lat="53.3447616577" lon="-1.7666556676"><ele>177</ele><time>2012-11-30T13:08:18Z</time></trkpt>
<trkpt lat="53.3447791735" lon="-1.7664231618"><ele>176</ele><time>2012-11-30T13:08:31Z</time></trkpt>
<trkpt lat="53.3447783470" lon="-1.7661831538"><ele>176</ele><time>2012-11-30T13:08:43Z</time></trkpt>
<trkpt lat="53.3447821617" lon="-1.7659563065"><ele>176</ele><time>2012-11-30T13:08:58Z</time></trkpt>
<trkpt lat="53.3447666804" lon="-1.7657173157"><ele>176</ele><time>2012-11-30T13:09:11Z</time></trkpt>
<trkpt lat="53.3447328250" lon="-1.7654900233"><ele>176</ele><time>2012-11-30T13:09:24Z</time></trkpt>
<trkpt lat="53.3446134885" lon="-1.7653086980"><ele>177</ele><time>2012-11-30T13:16:00Z</time></trkpt>
<trkpt lat="53.3447204908" lon="-1.7654490153"><ele>179</ele><time>2012-11-30T13:20:59Z</time></trkpt>
<trkpt lat="53.3446105003" lon="-1.7653121948"><ele>177</ele><time>2012-11-30T13:26:16Z</time></trkpt>
<trkpt lat="53.3445199966" lon="-1.7651266734"><ele>177</ele><time>2012-11-30T13:26:33Z</time></trkpt>
<trkpt lat="53.3444245021" lon="-1.7649633408"><ele>176</ele><time>2012-11-30T13:26:48Z</time></trkpt>
<trkpt lat="53.3443165143" lon="-1.7648223241"><ele>175</ele><time>2012-11-30T13:27:03Z</time></trkpt>
<trkpt lat="53.3442095121" lon="-1.7646656672"><ele>175</ele><time>2012-11-30T13:27:20Z</time></trkpt>
<trkpt lat="53.3441390038" lon="-1.7644588470"><ele>175</ele><time>2012-11-30T13:27:38Z</time></trkpt>
<trkpt lat="53.3440778414" lon="-1.7642528534"><ele>175</ele><time>2012-11-30T13:27:52Z</time></trkpt>
<trkpt lat="53.3439874967" lon="-1.7640804927"><ele>175</ele><time>2012-11-30T13:28:05Z</time></trkpt>
<trkpt lat="53.3438861529" lon="-1.7639230092"><ele>175</ele><time>2012-11-30T13:28:16Z</time></trkpt>
<trkpt lat="53.3437701543" lon="-1.7637726466"><ele>175</ele><time>2012-11-30T13:28:29Z</time></trkpt>
<trkpt lat="53.3436593374" lon="-1.7636194865"><ele>175</ele><time>2012-11-30T13:28:42Z</time></trkpt>
<trkpt lat="53.3435571671" lon="-1.7634461721"><ele>175</ele><time>2012-11-30T13:28:53Z</time></trkpt>
<trkpt lat="53.3434421539" lon="-1.7632968267"><ele>175</ele><time>2012-11-30T13:29:06Z</time></trkpt>
<trkpt lat="53.3433401744" lon="-1.7631456375"><ele>175</ele><time>2012-11-30T13:29:17Z</time></trkpt>
<trkpt lat="53.3432331721" lon="-1.7629849752"><ele>175</ele><time>2012-11-30T13:29:28Z</time></trkpt>
<trkpt lat="53.3431571643" lon="-1.7627948125"><ele>174</ele><time>2012-11-30T13:29:39Z</time></trkpt>
<trkpt lat="53.3431205114" lon="-1.7625745138"><ele>174</ele><time>2012-11-30T13:29:52Z</time></trkpt>
<trkpt lat="53.3431480090" lon="-1.7623526891"><ele>173</ele><time>2012-11-30T13:30:12Z</time></trkpt>
<trkpt lat="53.3431343397" lon="-1.7621280034"><ele>173</ele><time>2012-11-30T13:30:26Z</time></trkpt>
<trkpt lat="53.3431383451" lon="-1.7618888219"><ele>173</ele><time>2012-11-30T13:30:39Z</time></trkpt>
<trkpt lat="53.3431185087" lon="-1.7616658529"><ele>173</ele><time>2012-11-30T13:30:49Z</time></trkpt>
<trkpt lat="53.3430939992" lon="-1.7614259720"><ele>173</ele><time>2012-11-30T13:31:03Z</time></trkpt>
<trkpt lat="53.3430618286" lon="-1.7612019857"><ele>173</ele><time>2012-11-30T13:31:14Z</time></trkpt>
<trkpt lat="53.3430340131" lon="-1.7609811783"><ele>173</ele><time>2012-11-30T13:31:31Z</time></trkpt>
<trkpt lat="53.3430363337" lon="-1.7607484818"><ele>173</ele><time>2012-11-30T13:31:44Z</time></trkpt>
<trkpt lat="53.3430731773" lon="-1.7605304718"><ele>173</ele><time>2012-11-30T13:31:58Z</time></trkpt>
<trkpt lat="53.3430930138" lon="-1.7603053411"><ele>173</ele><time>2012-11-30T13:32:10Z</time></trkpt>
<trkpt lat="53.3431174914" lon="-1.7600663503"><ele>173</ele><time>2012-11-30T13:32:23Z</time></trkpt>
<trkpt lat="53.3431381543" lon="-1.7598328273"><ele>174</ele><time>2012-11-30T13:32:35Z</time></trkpt>
<trkpt lat="53.3431531588" lon="-1.7596058528"><ele>175</ele><time>2012-11-30T13:32:49Z</time></trkpt>
<trkpt lat="53.3431819916" lon="-1.7593716939"><ele>175</ele><time>2012-11-30T13:33:20Z</time></trkpt>
<trkpt lat="53.3432041804" lon="-1.7591346741"><ele>176</ele><time>2012-11-30T13:33:40Z</time></trkpt>
<trkpt lat="53.3432193438" lon="-1.7589054743"><ele>175</ele><time>2012-11-30T13:33:53Z</time></trkpt>
<trkpt lat="53.3432415009" lon="-1.7586796443"><ele>174</ele><time>2012-11-30T13:34:04Z</time></trkpt>
<trkpt lat="53.3432901700" lon="-1.7584559759"><ele>175</ele><time>2012-11-30T13:34:32Z</time></trkpt>
<trkpt lat="53.3433144887" lon="-1.7582223256"><ele>174</ele><time>2012-11-30T13:34:44Z</time></trkpt>
<trkpt lat="53.3433271726" lon="-1.7579865138"><ele>174</ele><time>2012-11-30T13:34:56Z</time></trkpt>
<trkpt lat="53.3433356603" lon="-1.7577463150"><ele>174</ele><time>2012-11-30T13:35:08Z</time></trkpt>
<trkpt lat="53.3433503469" lon="-1.7575213114"><ele>174</ele><time>2012-11-30T13:35:20Z</time></trkpt>
<trkpt lat="53.3433911641" lon="-1.7572994868"><ele>174</ele><time>2012-11-30T13:35:32Z</time></trkpt>
<trkpt lat="53.3434150060" lon="-1.7570761363"><ele>174</ele><time>2012-11-30T13:35:44Z</time></trkpt>
<trkpt lat="53.3434623400" lon="-1.7568556468"><ele>174</ele><time>2012-11-30T13:35:56Z</time></trkpt>
<trkpt lat="53.3434879939" lon="-1.7566161474"><ele>175</ele><time>2012-11-30T13:36:20Z</time></trkpt>
<trkpt lat="53.3434991519" lon="-1.7563716888"><ele>175</ele><time>2012-11-30T13:36:33Z</time></trkpt>
<trkpt lat="53.3434934934" lon="-1.7561378479"><ele>175</ele><time>2012-11-30T13:36:47Z</time></trkpt>
<trkpt lat="53.3434569995" lon="-1.7559048335"><ele>175</ele><time>2012-11-30T13:37:01Z</time></trkpt>
<trkpt lat="53.3434323311" lon="-1.7556773504"><ele>175</ele><time>2012-11-30T13:37:11Z</time></trkpt>
<trkpt lat="53.3434205055" lon="-1.7554520289"><ele>176</ele><time>2012-11-30T13:37:25Z</time></trkpt>
<trkpt lat="53.3434919993" lon="-1.7552518209"><ele>175</ele><time>2012-11-30T13:37:38Z</time></trkpt>
<trkpt lat="53.3435176531" lon="-1.7550165176"><ele>174</ele><time>2012-11-30T13:37:53Z</time></trkpt>
<trkpt lat="53.3435853322" lon="-1.7548180262"><ele>177</ele><time>2012-11-30T13:38:12Z</time></trkpt>
<trkpt lat="53.3436884880" lon="-1.7546410243"><ele>177</ele><time>2012-11-30T13:38:27Z</time></trkpt>
<trkpt lat="53.3437926610" lon="-1.7544801712"><ele>177</ele><time>2012-11-30T13:38:39Z</time></trkpt>
<trkpt lat="53.3438978195" lon="-1.7543343226"><ele>177</ele><time>2012-11-30T13:38:51Z</time></trkpt>
<trkpt lat="53.3439843178" lon="-1.7541465123"><ele>177</ele><time>2012-11-30T13:39:03Z</time></trkpt>
<trkpt lat="53.3440761566" lon="-1.7539601644"><ele>177</ele><time>2012-11-30T13:39:15Z</time></trkpt>
<trkpt lat="53.3441806793" lon="-1.7538123449"><ele>177</ele><time>2012-11-30T13:39:27Z</time></trkpt>
<trkpt lat="53.3442818324" lon="-1.7536426544"><ele>176</ele><time>2012-11-30T13:39:39Z</time></trkpt>
<trkpt lat="53.3443823179" lon="-1.7534760157"><ele>175</ele><time>2012-11-30T13:39:51Z</time></trkpt>
<trkpt lat="53.3444786708" lon="-1.7533156713"><ele>175</ele><time>2012-11-30T13:40:03Z</time></trkpt>
<trkpt lat="53.3445390066" lon="-1.7530998230"><ele>174</ele><time>2012-11-30T13:40:27Z</time></trkpt>
<trkpt lat="53.3445806821" lon="-1.7528844833"><ele>175</ele><time>2012-11-30T13:40:53Z</time></trkpt>
<trkpt lat="53.3446449916" lon="-1.7526818593"><ele>175</ele><time>2012-11-30T13:41:12Z</time></trkpt>
<trkpt lat="53.3447128296" lon="-1.7524740219"><ele>176</ele><time>2012-11-30T13:41:27Z</time></trkpt>
<trkpt lat="53.3447678248" lon="-1.7522665024"><ele>175</ele><time>2012-11-30T13:41:40Z</time></trkpt>
<trkpt lat="53.3448066711" lon="-1.7520473480"><ele>174</ele><time>2012-11-30T13:41:52Z</time></trkpt>
<trkpt lat="53.3448486646" lon="-1.7518253326"><ele>173</ele><time>2012-11-30T13:42:04Z</time></trkpt>
<trkpt lat="53.3448899905" lon="-1.7515948613"><ele>173</ele><time>2012-11-30T13:42:20Z</time></trkpt>
<trkpt lat="53.3449026744" lon="-1.7513636907"><ele>174</ele><time>2012-11-30T13:42:32Z</time></trkpt>
<trkpt lat="53.3449681600" lon="-1.7511425018"><ele>174</ele><time>2012-11-30T13:42:48Z</time></trkpt>
<trkpt lat="53.3450776736" lon="-1.7509115219"><ele>174</ele><time>2012-11-30T13:42:58Z</time></trkpt>
<trkpt lat="53.3451671600" lon="-1.7507256826"><ele>174</ele><time>2012-11-30T13:43:09Z</time></trkpt>
<trkpt lat="53.3452641805" lon="-1.7505589803"><ele>173</ele><time>2012-11-30T13:43:23Z</time></trkpt>
<trkpt lat="53.3453723272" lon="-1.7503946940"><ele>173</ele><time>2012-11-30T13:43:35Z</time></trkpt>
<trkpt lat="53.3454779943" lon="-1.7502418518"><ele>173</ele><time>2012-11-30T13:43:46Z</time></trkpt>
<trkpt lat="53.3455631574" lon="-1.7500476837"><ele>172</ele><time>2012-11-30T13:44:01Z</time></trkpt>
<trkpt lat="53.3456093470" lon="-1.7498356501"><ele>172</ele><time>2012-11-30T13:44:15Z</time></trkpt>
<trkpt lat="53.3456331571" lon="-1.7496100108"><ele>172</ele><time>2012-11-30T13:44:26Z</time></trkpt>
<trkpt lat="53.3456604958" lon="-1.7493863424"><ele>171</ele><time>2012-11-30T13:44:44Z</time></trkpt>
<trkpt lat="53.3457084974" lon="-1.7491635005"><ele>171</ele><time>2012-11-30T13:44:58Z</time></trkpt>
<trkpt lat="53.3457253456" lon="-1.7489128113"><ele>170</ele><time>2012-11-30T13:45:09Z</time></trkpt>
<trkpt lat="53.3457869848" lon="-1.7486893336"><ele>170</ele><time>2012-11-30T13:45:19Z</time></trkpt>
<trkpt lat="53.3458188375" lon="-1.7484645208"><ele>169</ele><time>2012-11-30T13:45:31Z</time></trkpt>
<trkpt lat="53.3458495140" lon="-1.7482379913"><ele>170</ele><time>2012-11-30T13:45:47Z</time></trkpt>
<trkpt lat="53.3458548228" lon="-1.7479914983"><ele>170</ele><time>2012-11-30T13:46:00Z</time></trkpt>
<trkpt lat="53.3458363215" lon="-1.7477624893"><ele>170</ele><time>2012-11-30T13:46:19Z</time></trkpt>
<trkpt lat="53.3458745003" lon="-1.7475318273"><ele>170</ele><time>2012-11-30T13:46:36Z</time></trkpt>
<trkpt lat="53.3458848317" lon="-1.7472961426"><ele>170</ele><time>2012-11-30T13:46:51Z</time></trkpt>
<trkpt lat="53.3459038417" lon="-1.7470518112"><ele>170</ele><time>2012-11-30T13:47:04Z</time></trkpt>
<trkpt lat="53.3459380150" lon="-1.7468283335"><ele>170</ele><time>2012-11-30T13:47:17Z</time></trkpt>
<trkpt lat="53.3460208257" lon="-1.7466494878"><ele>170</ele><time>2012-11-30T13:47:41Z</time></trkpt>
<trkpt lat="53.3460819880" lon="-1.7464453379"><ele>170</ele><time>2012-11-30T13:47:56Z</time></trkpt>
<trkpt lat="53.3460536639" lon="-1.7462218602"><ele>169</ele><time>2012-11-30T13:48:12Z</time></trkpt>
<trkpt lat="53.3460481644" lon="-1.7459966660"><ele>169</ele><time>2012-11-30T13:48:26Z</time></trkpt>
<trkpt lat="53.3460491816" lon="-1.7457676570"><ele>169</ele><time>2012-11-30T13:48:38Z</time></trkpt>
<trkpt lat="53.3460654895" lon="-1.7455286662"><ele>169</ele><time>2012-11-30T13:48:49Z</time></trkpt>
<trkpt lat="53.3460815112" lon="-1.7452853521"><ele>169</ele><time>2012-11-30T13:49:00Z</time></trkpt>
<trkpt lat="53.3461163203" lon="-1.7450546900"><ele>169</ele><time>2012-11-30T13:49:12Z</time></trkpt>
<trkpt lat="53.3460758209" lon="-1.7448136648"><ele>169</ele><time>2012-11-30T13:49:24Z</time></trkpt>
<trkpt lat="53.3460035006" lon="-1.7446056366"><ele>169</ele><time>2012-11-30T13:49:35Z</time></trkpt>
<trkpt lat="53.3458831787" lon="-1.7445018133"><ele>169</ele><time>2012-11-30T13:49:54Z</time></trkpt>
<trkpt lat="53.3458580017" lon="-1.7442691803"><ele>170</ele><time>2012-11-30T13:51:14Z</time></trkpt>
<trkpt lat="53.3458961805" lon="-1.7440396627"><ele>170</ele><time>2012-11-30T13:51:29Z</time></trkpt>
<trkpt lat="53.3460146586" lon="-1.7439076742"><ele>170</ele><time>2012-11-30T13:51:42Z</time></trkpt>
<trkpt lat="53.3461453438" lon="-1.7437928518"><ele>169</ele><time>2012-11-30T13:51:55Z</time></trkpt>
<trkpt lat="53.3461504936" lon="-1.7435671488"><ele>169</ele><time>2012-11-30T13:52:19Z</time></trkpt>
<trkpt lat="53.3460280101" lon="-1.7434429804"><ele>170</ele><time>2012-11-30T13:52:32Z</time></trkpt>
<trkpt lat="53.3459023476" lon="-1.7433461507"><ele>170</ele><time>2012-11-30T13:52:46Z</time></trkpt>
<trkpt lat="53.3457963308" lon="-1.7431898117"><ele>171</ele><time>2012-11-30T13:52:58Z</time></trkpt>
<trkpt lat="53.3456661542" lon="-1.7430663427"><ele>172</ele><time>2012-11-30T13:53:08Z</time></trkpt>
<trkpt lat="53.3455345154" lon="-1.7429164886"><ele>172</ele><time>2012-11-30T13:53:18Z</time></trkpt>
<trkpt lat="53.3454571724" lon="-1.7427265167"><ele>172</ele><time>2012-11-30T13:53:36Z</time></trkpt>
<trkpt lat="53.3453529994" lon="-1.7425733566"><ele>172</ele><time>2012-11-30T13:53:46Z</time></trkpt>
<trkpt lat="53.3452356656" lon="-1.7424235026"><ele>173</ele><time>2012-11-30T13:53:56Z</time></trkpt>
<trkpt lat="53.3451965014" lon="-1.7422048569"><ele>174</ele><time>2012-11-30T13:54:22Z</time></trkpt>
<trkpt lat="53.3451531728" lon="-1.7419874827"><ele>174</ele><time>2012-11-30T13:54:38Z</time></trkpt>
<trkpt lat="53.3451553345" lon="-1.7417521795"><ele>175</ele><time>2012-11-30T13:54:50Z</time></trkpt>
<trkpt lat="53.3451416651" lon="-1.7415185293"><ele>175</ele><time>2012-11-30T13:55:02Z</time></trkpt>
<trkpt lat="53.3450874964" lon="-1.7412885030"><ele>176</ele><time>2012-11-30T13:55:12Z</time></trkpt>
<trkpt lat="53.3450559934" lon="-1.7410536448"><ele>176</ele><time>2012-11-30T13:55:22Z</time></trkpt>
<trkpt lat="53.3450361570" lon="-1.7408186595"><ele>177</ele><time>2012-11-30T13:55:33Z</time></trkpt>
<trkpt lat="53.3450018247" lon="-1.7405903498"><ele>177</ele><time>2012-11-30T13:55:46Z</time></trkpt>
<trkpt lat="53.3449518204" lon="-1.7403716405"><ele>177</ele><time>2012-11-30T13:55:57Z</time></trkpt>
<trkpt lat="53.3449086825" lon="-1.7401461919"><ele>178</ele><time>2012-11-30T13:56:10Z</time></trkpt>
<trkpt lat="53.3448471705" lon="-1.7399414698"><ele>178</ele><time>2012-11-30T13:56:20Z</time></trkpt>
<trkpt lat="53.3448141734" lon="-1.7397059759"><ele>179</ele><time>2012-11-30T13:56:33Z</time></trkpt>
<trkpt lat="53.3447499911" lon="-1.7394923528"><ele>179</ele><time>2012-11-30T13:56:44Z</time></trkpt>
<trkpt lat="53.3446975072" lon="-1.7392615000"><ele>179</ele><time>2012-11-30T13:56:55Z</time></trkpt>
<trkpt lat="53.3446316719" lon="-1.7390526454"><ele>179</ele><time>2012-11-30T13:57:07Z</time></trkpt>
<trkpt lat="53.3445426623" lon="-1.7388718287"><ele>180</ele><time>2012-11-30T13:57:19Z</time></trkpt>
<trkpt lat="53.3444541613" lon="-1.7386841456"><ele>180</ele><time>2012-11-30T13:57:32Z</time></trkpt>
<trkpt lat="53.3443629901" lon="-1.7384908040"><ele>181</ele><time>2012-11-30T13:57:45Z</time></trkpt>
<trkpt lat="53.3442628225" lon="-1.7383281708"><ele>182</ele><time>2012-11-30T13:57:58Z</time></trkpt>
<trkpt lat="53.3441801707" lon="-1.7381468455"><ele>183</ele><time>2012-11-30T13:58:14Z</time></trkpt>
<trkpt lat="53.3440948486" lon="-1.7379660288"><ele>184</ele><time>2012-11-30T13:58:30Z</time></trkpt>
<trkpt lat="53.3439904849" lon="-1.7378040314"><ele>185</ele><time>2012-11-30T13:58:43Z</time></trkpt>
<trkpt lat="53.3438636780" lon="-1.7376988093"><ele>186</ele><time>2012-11-30T13:58:54Z</time></trkpt>
<trkpt lat="53.3438029925" lon="-1.7374963125"><ele>188</ele><time>2012-11-30T13:59:08Z</time></trkpt>
<trkpt lat="53.3437914848" lon="-1.7372514725"><ele>189</ele><time>2012-11-30T13:59:23Z</time></trkpt>
<trkpt lat="53.3437606812" lon="-1.7370169957"><ele>189</ele><time>2012-11-30T13:59:36Z</time></trkpt>
<trkpt lat="53.3437314987" lon="-1.7367881775"><ele>190</ele><time>2012-11-30T13:59:47Z</time></trkpt>
<trkpt lat="53.3437081655" lon="-1.7365531921"><ele>190</ele><time>2012-11-30T13:59:59Z</time></trkpt>
<trkpt lat="53.3436831792" lon="-1.7363253276"><ele>190</ele><time>2012-11-30T14:00:10Z</time></trkpt>
<trkpt lat="53.3436516762" lon="-1.7361019770"><ele>190</ele><time>2012-11-30T14:00:22Z</time></trkpt>
<trkpt lat="53.3436146736" lon="-1.7358816783"><ele>190</ele><time>2012-11-30T14:00:33Z</time></trkpt>
<trkpt lat="53.3435770035" lon="-1.7356476466"><ele>190</ele><time>2012-11-30T14:00:45Z</time></trkpt>
<trkpt lat="53.3435608228" lon="-1.7354099909"><ele>189</ele><time>2012-11-30T14:00:56Z</time></trkpt>
<trkpt lat="53.3435229937" lon="-1.7351681391"><ele>189</ele><time>2012-11-30T14:01:07Z</time></trkpt>
<trkpt lat="53.3434881528" lon="-1.7349440257"><ele>189</ele><time>2012-11-30T14:01:18Z</time></trkpt>
<trkpt lat="53.3434506734" lon="-1.7347080231"><ele>189</ele><time>2012-11-30T14:01:28Z</time></trkpt>
<trkpt lat="53.3434194883" lon="-1.7344800313"><ele>188</ele><time>2012-11-30T14:01:40Z</time></trkpt>
<trkpt lat="53.3433841705" lon="-1.7342620214"><ele>187</ele><time>2012-11-30T14:01:50Z</time></trkpt>
<trkpt lat="53.3433450063" lon="-1.7340396881"><ele>187</ele><time>2012-11-30T14:02:02Z</time></trkpt>
<trkpt lat="53.3432966550" lon="-1.7338286718"><ele>185</ele><time>2012-11-30T14:02:14Z</time></trkpt>
<trkpt lat="53.3432578405" lon="-1.7335918427"><ele>184</ele><time>2012-11-30T14:02:27Z</time></trkpt>
<trkpt lat="53.3432071686" lon="-1.7333741506"><ele>184</ele><time>2012-11-30T14:02:38Z</time></trkpt>
<trkpt lat="53.3431548436" lon="-1.7331491470"><ele>183</ele><time>2012-11-30T14:02:50Z</time></trkpt>
<trkpt lat="53.3431015015" lon="-1.7329266866"><ele>182</ele><time>2012-11-30T14:03:00Z</time></trkpt>
<trkpt lat="53.3430306753" lon="-1.7327283223"><ele>181</ele><time>2012-11-30T14:03:14Z</time></trkpt>
<trkpt lat="53.3429946582" lon="-1.7324998220"><ele>181</ele><time>2012-11-30T14:03:28Z</time></trkpt>
<trkpt lat="53.3429158211" lon="-1.7322866440"><ele>180</ele><time>2012-11-30T14:03:39Z</time></trkpt>
<trkpt lat="53.3428519885" lon="-1.7320796967"><ele>180</ele><time>2012-11-30T14:03:50Z</time></trkpt>
<trkpt lat="53.3427619934" lon="-1.7318941752"><ele>180</ele><time>2012-11-30T14:04:04Z</time></trkpt>
<trkpt lat="53.3426966667" lon="-1.7316843033"><ele>180</ele><time>2012-11-30T14:04:15Z</time></trkpt>
<trkpt lat="53.3426268260" lon="-1.7314628601"><ele>180</ele><time>2012-11-30T14:04:25Z</time></trkpt>
<trkpt lat="53.3425698280" lon="-1.7312473297"><ele>179</ele><time>2012-11-30T14:04:39Z</time></trkpt>
<trkpt lat="53.3425021807" lon="-1.7310506821"><ele>178</ele><time>2012-11-30T14:04:51Z</time></trkpt>
<trkpt lat="53.3424233437" lon="-1.7308506648"><ele>177</ele><time>2012-11-30T14:05:03Z</time></trkpt>
<trkpt lat="53.3423359871" lon="-1.7306488037"><ele>176</ele><time>2012-11-30T14:05:15Z</time></trkpt>
<trkpt lat="53.3422176679" lon="-1.7305124919"><ele>174</ele><time>2012-11-30T14:05:26Z</time></trkpt>
<trkpt lat="53.3420978228" lon="-1.7303754807"><ele>173</ele><time>2012-11-30T14:05:37Z</time></trkpt>
<trkpt lat="53.3419646581" lon="-1.7303201675"><ele>172</ele><time>2012-11-30T14:05:49Z</time></trkpt>
<trkpt lat="53.3418273290" lon="-1.7303086599"><ele>171</ele><time>2012-11-30T14:06:04Z</time></trkpt>
<trkpt lat="53.3416943232" lon="-1.7302543640"><ele>170</ele><time>2012-11-30T14:06:15Z</time></trkpt>
<trkpt lat="53.3415694873" lon="-1.7301646550"><ele>169</ele><time>2012-11-30T14:06:36Z</time></trkpt>
<trkpt lat="53.3414855003" lon="-1.7299728394"><ele>168</ele><time>2012-11-30T14:07:07Z</time></trkpt>
<trkpt lat="53.3414326668" lon="-1.7297594706"><ele>168</ele><time>2012-11-30T14:07:34Z</time></trkpt>
<trkpt lat="53.3414626757" lon="-1.7294983546"><ele>167</ele><time>2012-11-30T14:07:44Z</time></trkpt>
<trkpt lat="53.3413286527" lon="-1.7294560115"><ele>168</ele><time>2012-11-30T14:07:59Z</time></trkpt>
<trkpt lat="53.3412376722" lon="-1.7292741776"><ele>169</ele><time>2012-11-30T14:08:17Z</time></trkpt>
<trkpt lat="53.3411248207" lon="-1.7291318258"><ele>169</ele><time>2012-11-30T14:08:31Z</time></trkpt>
<trkpt lat="53.3410435041" lon="-1.7289328257"><ele>167</ele><time>2012-11-30T14:11:26Z</time></trkpt>
<trkpt lat="53.3409783363" lon="-1.7287251790"><ele>166</ele><time>2012-11-30T14:11:44Z</time></trkpt>
<trkpt lat="53.3409116745" lon="-1.7285151800"><ele>165</ele><time>2012-11-30T14:12:00Z</time></trkpt>
<trkpt lat="53.3407888412" lon="-1.7284091949"><ele>165</ele><time>2012-11-30T14:12:14Z</time></trkpt>
<trkpt lat="53.3406631788" lon="-1.7283263524"><ele>166</ele><time>2012-11-30T14:12:26Z</time></trkpt>
<trkpt lat="53.3405268351" lon="-1.7282683055"><ele>164</ele><time>2012-11-30T14:12:39Z</time></trkpt>
<trkpt lat="53.3403901736" lon="-1.7282086690"><ele>163</ele><time>2012-11-30T14:12:51Z</time></trkpt>
<trkpt lat="53.3402591705" lon="-1.7281435013"><ele>162</ele><time>2012-11-30T14:13:04Z</time></trkpt>
<trkpt lat="53.3401268323" lon="-1.7280958176"><ele>161</ele><time>2012-11-30T14:13:16Z</time></trkpt>
<trkpt lat="53.3400033315" lon="-1.7279834747"><ele>160</ele><time>2012-11-30T14:13:29Z</time></trkpt>
<trkpt lat="53.3398608208" lon="-1.7279833476"><ele>159</ele><time>2012-11-30T14:13:44Z</time></trkpt>
<trkpt lat="53.3397316615" lon="-1.7280930201"><ele>158</ele><time>2012-11-30T14:13:57Z</time></trkpt>
<trkpt lat="53.3395963351" lon="-1.7281171799"><ele>158</ele><time>2012-11-30T14:14:15Z</time></trkpt>
<trkpt lat="53.3395733198" lon="-1.7278943380"><ele>157</ele><time>2012-11-30T14:14:35Z</time></trkpt>
<trkpt lat="53.3396160126" lon="-1.7276709874"><ele>157</ele><time>2012-11-30T14:14:48Z</time></trkpt>
<trkpt lat="53.3396666527" lon="-1.7274511973"><ele>157</ele><time>2012-11-30T14:15:02Z</time></trkpt>
<trkpt lat="53.3396958351" lon="-1.7272185008"><ele>156</ele><time>2012-11-30T14:15:13Z</time></trkpt>
<trkpt lat="53.3397344907" lon="-1.7270026525"><ele>156</ele><time>2012-11-30T14:15:25Z</time></trkpt>
<trkpt lat="53.3397781690" lon="-1.7267864863"><ele>156</ele><time>2012-11-30T14:15:37Z</time></trkpt>
<trkpt lat="53.3398298264" lon="-1.7265623093"><ele>156</ele><time>2012-11-30T14:15:49Z</time></trkpt>
<trkpt lat="53.3398920059" lon="-1.7263415019"><ele>156</ele><time>2012-11-30T14:16:00Z</time></trkpt>
<trkpt lat="53.3399689992" lon="-1.7261498133"><ele>156</ele><time>2012-11-30T14:16:11Z</time></trkpt>
<trkpt lat="53.3400609970" lon="-1.7259613037"><ele>156</ele><time>2012-11-30T14:16:23Z</time></trkpt>
<trkpt lat="53.3401636759" lon="-1.7258131663"><ele>156</ele><time>2012-11-30T14:16:35Z</time></trkpt>
<trkpt lat="53.3402689934" lon="-1.7256650289"><ele>156</ele><time>2012-11-30T14:16:46Z</time></trkpt>
<trkpt lat="53.3403848330" lon="-1.7255488078"><ele>156</ele><time>2012-11-30T14:16:57Z</time></trkpt>
<trkpt lat="53.3405088425" lon="-1.7254413605"><ele>156</ele><time>2012-11-30T14:17:10Z</time></trkpt>
<trkpt lat="53.3406359990" lon="-1.7253476461"><ele>156</ele><time>2012-11-30T14:17:21Z</time></trkpt>
<trkpt lat="53.3407714844" lon="-1.7254231771"><ele>155</ele><time>2012-11-30T14:18:02Z</time></trkpt>
<trkpt lat="53.3408856710" lon="-1.7255483627"><ele>155</ele><time>2012-11-30T14:18:14Z</time></trkpt>
<trkpt lat="53.3409711520" lon="-1.7257358551"><ele>155</ele><time>2012-11-30T14:18:28Z</time></trkpt>
<trkpt lat="53.3410821597" lon="-1.7258888245"><ele>155</ele><time>2012-11-30T14:18:42Z</time></trkpt>
<trkpt lat="53.3411941528" lon="-1.7260316849"><ele>156</ele><time>2012-11-30T14:18:54Z</time></trkpt>
<trkpt lat="53.3413061778" lon="-1.7261883418"><ele>156</ele><time>2012-11-30T14:19:05Z</time></trkpt>
<trkpt lat="53.3414178212" lon="-1.7263456980"><ele>156</ele><time>2012-11-30T14:19:16Z</time></trkpt>
<trkpt lat="53.3415226618" lon="-1.7264884949"><ele>156</ele><time>2012-11-30T14:19:26Z</time></trkpt>
<trkpt lat="53.3416333199" lon="-1.7266381582"><ele>156</ele><time>2012-11-30T14:19:38Z</time></trkpt>
<trkpt lat="53.3417458216" lon="-1.7267768224"><ele>156</ele><time>2012-11-30T14:19:49Z</time></trkpt>
<trkpt lat="53.3418424924" lon="-1.7269361496"><ele>156</ele><time>2012-11-30T14:20:01Z</time></trkpt>
<trkpt lat="53.3419430097" lon="-1.7270895004"><ele>157</ele><time>2012-11-30T14:20:12Z</time></trkpt>
<trkpt lat="53.3420341810" lon="-1.7272706350"><ele>157</ele><time>2012-11-30T14:20:23Z</time></trkpt>
<trkpt lat="53.3421411514" lon="-1.7274335225"><ele>157</ele><time>2012-11-30T14:20:34Z</time></trkpt>
<trkpt lat="53.3422323227" lon="-1.7276061376"><ele>157</ele><time>2012-11-30T14:20:46Z</time></trkpt>
<trkpt lat="53.3423480034" lon="-1.7277449926"><ele>157</ele><time>2012-11-30T14:20:58Z</time></trkpt>
<trkpt lat="53.3424698194" lon="-1.7278556824"><ele>157</ele><time>2012-11-30T14:21:16Z</time></trkpt>
<trkpt lat="53.3426085154" lon="-1.7278680166"><ele>157</ele><time>2012-11-30T14:21:30Z</time></trkpt>
<trkpt lat="53.3426600138" lon="-1.7280891418"><ele>159</ele><time>2012-11-30T14:21:56Z</time></trkpt>
<trkpt lat="53.3427104950" lon="-1.7282983144"><ele>159</ele><time>2012-11-30T14:22:08Z</time></trkpt>
<trkpt lat="53.3427573204" lon="-1.7285100301"><ele>158</ele><time>2012-11-30T14:22:19Z</time></trkpt>
<trkpt lat="53.3428518295" lon="-1.7286790212"><ele>159</ele><time>2012-11-30T14:22:30Z</time></trkpt>
<trkpt lat="53.3429386775" lon="-1.7288748423"><ele>159</ele><time>2012-11-30T14:22:42Z</time></trkpt>
<trkpt lat="53.3430454890" lon="-1.7290264765"><ele>159</ele><time>2012-11-30T14:22:52Z</time></trkpt>
<trkpt lat="53.3431661606" lon="-1.7291348139"><ele>161</ele><time>2012-11-30T14:23:18Z</time></trkpt>
<trkpt lat="53.3432481766" lon="-1.7293380102"><ele>161</ele><time>2012-11-30T14:23:31Z</time></trkpt>
<trkpt lat="53.3433258375" lon="-1.7295438131"><ele>161</ele><time>2012-11-30T14:23:43Z</time></trkpt>
<trkpt lat="53.3434549967" lon="-1.7296231588"><ele>161</ele><time>2012-11-30T14:23:58Z</time></trkpt>
<trkpt lat="53.3435868263" lon="-1.7295583089"><ele>161</ele><time>2012-11-30T14:24:13Z</time></trkpt>
<trkpt lat="53.3437259992" lon="-1.7295128504"><ele>160</ele><time>2012-11-30T14:24:28Z</time></trkpt>
<trkpt lat="53.3438646634" lon="-1.7294306437"><ele>159</ele><time>2012-11-30T14:24:39Z</time></trkpt>
<trkpt lat="53.3439909935" lon="-1.7293236415"><ele>158</ele><time>2012-11-30T14:24:52Z</time></trkpt>
<trkpt lat="53.3440913200" lon="-1.7291693370"><ele>159</ele><time>2012-11-30T14:25:04Z</time></trkpt>
<trkpt lat="53.3442200025" lon="-1.7290658315"><ele>159</ele><time>2012-11-30T14:25:16Z</time></trkpt>
<trkpt lat="53.3443496704" lon="-1.7289511363"><ele>159</ele><time>2012-11-30T14:25:28Z</time></trkpt>
<trkpt lat="53.3444711685" lon="-1.7288450241"><ele>160</ele><time>2012-11-30T14:25:45Z</time></trkpt>
<trkpt lat="53.3446056684" lon="-1.7287686666"><ele>160</ele><time>2012-11-30T14:25:57Z</time></trkpt>
<trkpt lat="53.3447266579" lon="-1.7286481857"><ele>160</ele><time>2012-11-30T14:26:08Z</time></trkpt>
<trkpt lat="53.3448481560" lon="-1.7285468419"><ele>160</ele><time>2012-11-30T14:26:21Z</time></trkpt>
<trkpt lat="53.3449810028" lon="-1.7285003026"><ele>161</ele><time>2012-11-30T14:26:31Z</time></trkpt>
<trkpt lat="53.3451036771" lon="-1.7286165237"><ele>162</ele><time>2012-11-30T14:26:49Z</time></trkpt>
<trkpt lat="53.3452056567" lon="-1.7287933350"><ele>162</ele><time>2012-11-30T14:27:03Z</time></trkpt>
<trkpt lat="53.3453088442" lon="-1.7289513270"><ele>163</ele><time>2012-11-30T14:27:15Z</time></trkpt>
<trkpt lat="53.3453808467" lon="-1.7291461945"><ele>164</ele><time>2012-11-30T14:27:26Z</time></trkpt>
<trkpt lat="53.3454226812" lon="-1.7293676376"><ele>165</ele><time>2012-11-30T14:27:37Z</time></trkpt>
<trkpt lat="53.3455031713" lon="-1.7295663198"><ele>166</ele><time>2012-11-30T14:27:50Z</time></trkpt>
<trkpt lat="53.3455976804" lon="-1.7297328313"><ele>167</ele><time>2012-11-30T14:28:00Z</time></trkpt>
<trkpt lat="53.3456921577" lon="-1.7299143473"><ele>167</ele><time>2012-11-30T14:28:12Z</time></trkpt>
<trkpt lat="53.3457839966" lon="-1.7300998052"><ele>167</ele><time>2012-11-30T14:28:23Z</time></trkpt>
<trkpt lat="53.3458588282" lon="-1.7302888234"><ele>167</ele><time>2012-11-30T14:28:33Z</time></trkpt>
<trkpt lat="53.3458771706" lon="-1.7305140177"><ele>166</ele><time>2012-11-30T14:28:47Z</time></trkpt>
<trkpt lat="53.3457909902" lon="-1.7306945165"><ele>167</ele><time>2012-11-30T14:29:36Z</time></trkpt>
</trkseg>
</trk>
</gpx>